Observation data for Earth on 06/15/2019      Previous  Date  Next       Current Mesonet Observations  Soil Data  Daily Summary Page  Observations in Plain Language
KEA1 150500Z 16013KT 22/10 A2985 RMK A01 T02230096  RH  044%=      5-min Rain = 0
KEA1 150501Z 16015KT 23/10 A2985 RMK A01 T02250102  RH  046%=      5-min Rain = 0
KEA1 150502Z 16014KT 23/11 A2985 RMK A01 T02250109  RH  048%=      5-min Rain = 0
KEA1 150503Z 16012KT 23/11 A2985 RMK A01 T02260113  RH  049%=      5-min Rain = 0
KEA1 150504Z 17012G17KT 23/12 A2985 RMK A01 T02260115  RH  049%=      5-min Rain = 0
KEA1 150505Z 16015KT 23/12 A2985 RMK A01 T02260120  RH  051%=      5-min Rain = 0
KEA1 150506Z 16015KT 23/12 A2985 RMK A01 T02260121  RH  051%=      5-min Rain = 0
KEA1 150507Z 16017KT 23/13 A2985 RMK A01 T02270126  RH  053%=      5-min Rain = 0
KEA1 150508Z 16016KT 23/13 A2985 RMK A01 T02270129  RH  054%=      5-min Rain = 0
KEA1 150509Z 17016KT 23/13 A2985 RMK A01 T02280132  RH  055%=      5-min Rain = 0
KEA1 150510Z 16016KT 23/14 A2985 RMK A01 T02280135  RH  056%=      5-min Rain = 0
KEA1 150511Z 17017KT 23/14 A2985 RMK A01 T02280137  RH  056%=      5-min Rain = 0
KEA1 150512Z 17015KT 23/14 A2985 RMK A01 T02290139  RH  057%=      5-min Rain = 0
KEA1 150513Z 16016G22KT 23/14 A2985 RMK A01 T02290141  RH  058%=      5-min Rain = 0
KEA1 150514Z 17016KT 23/14 A2985 RMK A01 T02290143  RH  058%=      5-min Rain = 0
KEA1 150515Z 17016KT 23/15 A2985 RMK A01 T02290145  RH  059%=      5-min Rain = 0
KEA1 150516Z 16016KT 23/15 A2985 RMK A01 T02290146  RH  060%=      5-min Rain = 0
KEA1 150517Z 17018G23KT 23/15 A2985 RMK A01 T02290148  RH  060%=      5-min Rain = 0
KEA1 150518Z 16017KT 23/15 A2985 RMK A01 T02300150  RH  061%=      5-min Rain = 0
KEA1 150519Z 16015KT 23/15 A2985 RMK A01 T02300151  RH  061%=      5-min Rain = 0
KEA1 150520Z 17016KT 23/15 A2985 RMK A01 T02300152  RH  061%=      5-min Rain = 0
KEA1 150521Z 17016KT 23/15 A2985 RMK A01 T02300153  RH  062%=      5-min Rain = 0
KEA1 150522Z 16015KT 23/15 A2985 RMK A01 T02290154  RH  062%=      5-min Rain = 0
KEA1 150523Z 17015G21KT 23/16 A2985 RMK A01 T02290155  RH  063%=      5-min Rain = 0
KEA1 150524Z 17014KT 23/16 A2985 RMK A01 T02290156  RH  063%=      5-min Rain = 0
KEA1 150525Z 17015KT 23/16 A2985 RMK A01 T02290157  RH  064%=      5-min Rain = 0
KEA1 150526Z 17015KT 23/16 A2985 RMK A01 T02290158  RH  064%=      5-min Rain = 0
KEA1 150527Z 17015KT 23/16 A2985 RMK A01 T02290159  RH  065%=      5-min Rain = 0
KEA1 150528Z 17014G20KT 23/16 A2985 RMK A01 T02290160  RH  065%=      5-min Rain = 0
KEA1 150529Z 17016KT 23/16 A2985 RMK A01 T02290161  RH  066%=      5-min Rain = 0
KEA1 150530Z 17016KT 23/16 A2985 RMK A01 T02300162  RH  066%=      5-min Rain = 0
KEA1 150531Z 17017KT 23/16 A2985 RMK A01 T02310163  RH  066%=      5-min Rain = 0
KEA1 150532Z 17017KT 23/16 A2985 RMK A01 T02320164  RH  066%=      5-min Rain = 0
KEA1 150533Z 17016KT 23/16 A2985 RMK A01 T02320164  RH  066%=      5-min Rain = 0
KEA1 150534Z 17016KT 23/16 A2985 RMK A01 T02320164  RH  066%=      5-min Rain = 0
KEA1 150535Z 17015KT 23/17 A2985 RMK A01 T02320165  RH  066%=      5-min Rain = 0
KEA1 150536Z 17014KT 23/17 A2985 RMK A01 T02310165  RH  066%=      5-min Rain = 0
KEA1 150537Z 17017G22KT 23/17 A2985 RMK A01 T02310166  RH  067%=      5-min Rain = 0
KEA1 150538Z 17016KT 23/17 A2985 RMK A01 T02310166  RH  067%=      5-min Rain = 0
KEA1 150539Z 17015KT 23/17 A2985 RMK A01 T02320166  RH  067%=      5-min Rain = 0
KEA1 150540Z 17016KT 23/17 A2985 RMK A01 T02320167  RH  067%=      5-min Rain = 0
KEA1 150541Z 17016KT 23/17 A2985 RMK A01 T02320167  RH  067%=      5-min Rain = 0
KEA1 150542Z 17015KT 23/17 A2985 RMK A01 T02320167  RH  067%=      5-min Rain = 0
KEA1 150543Z 17017KT 23/17 A2985 RMK A01 T02320168  RH  067%=      5-min Rain = 0
KEA1 150544Z 17016KT 23/17 A2985 RMK A01 T02320168  RH  067%=      5-min Rain = 0
KEA1 150545Z 17018KT 23/17 A2985 RMK A01 T02320168  RH  067%=      5-min Rain = 0
KEA1 150546Z 17014KT 23/17 A2985 RMK A01 T02330168  RH  067%=      5-min Rain = 0
KEA1 150547Z 17016KT 23/17 A2985 RMK A01 T02320169  RH  067%=      5-min Rain = 0
KEA1 150548Z 17017KT 23/17 A2985 RMK A01 T02330169  RH  067%=      5-min Rain = 0
KEA1 150549Z 17018KT 23/17 A2985 RMK A01 T02330169  RH  067%=      5-min Rain = 0
KEA1 150550Z 17015G20KT 23/17 A2985 RMK A01 T02330169  RH  067%=      5-min Rain = 0
KEA1 150551Z 17016KT 23/17 A2985 RMK A01 T02330169  RH  067%=      5-min Rain = 0
KEA1 150552Z 17016KT 23/17 A2985 RMK A01 T02320169  RH  068%=      5-min Rain = 0
KEA1 150553Z 17017G22KT 23/17 A2985 RMK A01 T02330170  RH  068%=      5-min Rain = 0
KEA1 150554Z 17016G21KT 23/17 A2985 RMK A01 T02320169  RH  068%=      5-min Rain = 0
KEA1 150555Z 17017G23KT 23/17 A2985 RMK A01 T02320169  RH  068%=      5-min Rain = 0
KEA1 150556Z 17014KT 23/17 A2985 RMK A01 T02320169  RH  068%=      5-min Rain = 0
KEA1 150557Z 17015KT 23/17 A2985 RMK A01 T02310169  RH  068%=      5-min Rain = 0
KEA1 150558Z 17015KT 23/17 A2985 RMK A01 T02300169  RH  068%=      5-min Rain = 0
KEA1 150559Z 17016KT 23/17 A2985 RMK A01 T02300169  RH  068%=      5-min Rain = 0
KEA1 150600Z 17017KT 23/17 A2985 RMK A01 T02300169  RH  068%=      5-min Rain = 0
KEA1 150601Z 17016KT 23/17 A2985 RMK A01 T02310168  RH  068%=      5-min Rain = 0
KEA1 150602Z 17017KT 23/17 A2985 RMK A01 T02300168  RH  068%=      5-min Rain = 0
KEA1 150603Z 17016G22KT 23/17 A2985 RMK A01 T02310167  RH  067%=      5-min Rain = 0
KEA1 150604Z 17015KT 23/17 A2985 RMK A01 T02310167  RH  067%=      5-min Rain = 0
KEA1 150605Z 17016KT 23/17 A2985 RMK A01 T02310167  RH  067%=      5-min Rain = 0
KEA1 150606Z 17017KT 23/17 A2985 RMK A01 T02300166  RH  067%=      5-min Rain = 0
KEA1 150607Z 17017KT 23/17 A2985 RMK A01 T02310165  RH  067%=      5-min Rain = 0
KEA1 150608Z 17017KT 23/17 A2985 RMK A01 T02310165  RH  066%=      5-min Rain = 0
KEA1 150609Z 17018KT 23/16 A2985 RMK A01 T02310164  RH  066%=      5-min Rain = 0
KEA1 150610Z 18018KT 23/16 A2985 RMK A01 T02320163  RH  065%=      5-min Rain = 0
KEA1 150611Z 17016KT 23/16 A2985 RMK A01 T02320163  RH  065%=      5-min Rain = 0
KEA1 150612Z 17016KT 23/16 A2985 RMK A01 T02310162  RH  065%=      5-min Rain = 0
KEA1 150613Z 18015KT 23/16 A2985 RMK A01 T02310162  RH  065%=      5-min Rain = 0
KEA1 150614Z 18015KT 23/16 A2985 RMK A01 T02300161  RH  065%=      5-min Rain = 0
KEA1 150615Z 18016KT 23/16 A2985 RMK A01 T02300160  RH  065%=      5-min Rain = 0
KEA1 150616Z 18017KT 23/16 A2985 RMK A01 T02300159  RH  064%=      5-min Rain = 0
KEA1 150617Z 18015KT 23/16 A2985 RMK A01 T02300159  RH  064%=      5-min Rain = 0
KEA1 150618Z 18016KT 23/16 A2984 RMK A01 T02290158  RH  064%=      5-min Rain = 0
KEA1 150619Z 17019KT 23/16 A2984 RMK A01 T02300156  RH  063%=      5-min Rain = 0
KEA1 150620Z 18015KT 23/16 A2984 RMK A01 T02310156  RH  062%=      5-min Rain = 0
KEA1 150621Z 18017KT 23/16 A2984 RMK A01 T02310155  RH  062%=      5-min Rain = 0
KEA1 150622Z 18018KT 23/15 A2984 RMK A01 T02310154  RH  062%=      5-min Rain = 0
KEA1 150623Z 18016KT 23/15 A2984 RMK A01 T02320154  RH  061%=      5-min Rain = 0
KEA1 150624Z 18015KT 23/15 A2984 RMK A01 T02320153  RH  061%=      5-min Rain = 0
KEA1 150625Z 18016KT 23/15 A2984 RMK A01 T02310152  RH  061%=      5-min Rain = 0
KEA1 150626Z 18017KT 23/15 A2984 RMK A01 T02310150  RH  060%=      5-min Rain = 0
KEA1 150627Z 18017G22KT 23/15 A2984 RMK A01 T02320150  RH  060%=      5-min Rain = 0
KEA1 150628Z 18018KT 23/15 A2984 RMK A01 T02320149  RH  060%=      5-min Rain = 0
KEA1 150629Z 17016KT 23/15 A2984 RMK A01 T02320148  RH  059%=      5-min Rain = 0
KEA1 150630Z 18019KT 23/15 A2984 RMK A01 T02320147  RH  059%=      5-min Rain = 0
KEA1 150631Z 18018KT 23/15 A2984 RMK A01 T02330146  RH  058%=      5-min Rain = 0
KEA1 150632Z 18018KT 23/15 A2984 RMK A01 T02340145  RH  058%=      5-min Rain = 0
KEA1 150633Z 18016KT 23/15 A2984 RMK A01 T02340145  RH  057%=      5-min Rain = 0
KEA1 150634Z 18017KT 23/15 A2984 RMK A01 T02330145  RH  058%=      5-min Rain = 0
KEA1 150635Z 18019KT 23/14 A2984 RMK A01 T02330144  RH  057%=      5-min Rain = 0
KEA1 150636Z 18016KT 23/14 A2984 RMK A01 T02330143  RH  057%=      5-min Rain = 0
KEA1 150637Z 18016G21KT 23/14 A2984 RMK A01 T02330143  RH  057%=      5-min Rain = 0
KEA1 150638Z 18017KT 23/14 A2984 RMK A01 T02320142  RH  057%=      5-min Rain = 0
KEA1 150639Z 18015KT 23/14 A2984 RMK A01 T02320141  RH  056%=      5-min Rain = 0
KEA1 150640Z 18018KT 23/14 A2984 RMK A01 T02320141  RH  057%=      5-min Rain = 0
KEA1 150641Z 18016G21KT 23/14 A2984 RMK A01 T02320140  RH  056%=      5-min Rain = 0
KEA1 150642Z 18014KT 23/14 A2984 RMK A01 T02320140  RH  056%=      5-min Rain = 0
KEA1 150643Z 18017G22KT 23/14 A2984 RMK A01 T02310139  RH  056%=      5-min Rain = 0
KEA1 150644Z 18017KT 23/14 A2984 RMK A01 T02310138  RH  056%=      5-min Rain = 0
KEA1 150645Z 18017KT 23/14 A2984 RMK A01 T02310138  RH  056%=      5-min Rain = 0
KEA1 150646Z 18016G22KT 23/14 A2984 RMK A01 T02320138  RH  056%=      5-min Rain = 0
KEA1 150647Z 18017KT 23/14 A2984 RMK A01 T02310137  RH  055%=      5-min Rain = 0
KEA1 150648Z 18015KT 23/14 A2984 RMK A01 T02300137  RH  056%=      5-min Rain = 0
KEA1 150649Z 18017KT 23/14 A2984 RMK A01 T02300136  RH  056%=      5-min Rain = 0
KEA1 150650Z 18016KT 23/14 A2984 RMK A01 T02300136  RH  055%=      5-min Rain = 0
KEA1 150651Z 18016KT 23/14 A2984 RMK A01 T02300135  RH  055%=      5-min Rain = 0
KEA1 150652Z 18015KT 23/14 A2984 RMK A01 T02300135  RH  055%=      5-min Rain = 0
KEA1 150653Z 18014KT 23/14 A2984 RMK A01 T02290135  RH  055%=      5-min Rain = 0
KEA1 150654Z 18016KT 23/13 A2984 RMK A01 T02290134  RH  055%=      5-min Rain = 0
KEA1 150655Z 19014KT 23/13 A2984 RMK A01 T02290134  RH  055%=      5-min Rain = 0
KEA1 150656Z 18017KT 23/13 A2984 RMK A01 T02290133  RH  055%=      5-min Rain = 0
KEA1 150657Z 18014KT 23/13 A2984 RMK A01 T02290132  RH  055%=      5-min Rain = 0
KEA1 150658Z 18015KT 23/13 A2984 RMK A01 T02290132  RH  054%=      5-min Rain = 0
KEA1 150659Z 18015KT 23/13 A2984 RMK A01 T02280132  RH  054%=      5-min Rain = 0
KEA1 150700Z 18014KT 23/13 A2984 RMK A01 T02280132  RH  054%=      5-min Rain = 0
KEA1 150701Z 18013G20KT 23/13 A2984 RMK A01 T02280131  RH  055%=      5-min Rain = 0
KEA1 150702Z 18016KT 23/13 A2984 RMK A01 T02260131  RH  055%=      5-min Rain = 0
KEA1 150703Z 18014KT 23/13 A2984 RMK A01 T02270131  RH  054%=      5-min Rain = 0
KEA1 150704Z 18015KT 23/13 A2984 RMK A01 T02270130  RH  054%=      5-min Rain = 0
KEA1 150705Z 19016KT 23/13 A2984 RMK A01 T02270130  RH  054%=      5-min Rain = 0
KEA1 150706Z 19017KT 23/13 A2984 RMK A01 T02270129  RH  054%=      5-min Rain = 0
KEA1 150707Z 19017KT 23/13 A2984 RMK A01 T02280129  RH  054%=      5-min Rain = 0
KEA1 150708Z 19015KT 23/13 A2984 RMK A01 T02280129  RH  053%=      5-min Rain = 0
KEA1 150709Z 19015KT 23/13 A2984 RMK A01 T02280129  RH  054%=      5-min Rain = 0
KEA1 150710Z 19015KT 23/13 A2984 RMK A01 T02270129  RH  054%=      5-min Rain = 0
KEA1 150711Z 19014KT 23/13 A2984 RMK A01 T02270128  RH  054%=      5-min Rain = 0
KEA1 150712Z 19016KT 23/13 A2984 RMK A01 T02270128  RH  054%=      5-min Rain = 0
KEA1 150713Z 19015KT 23/13 A2984 RMK A01 T02260128  RH  054%=      5-min Rain = 0
KEA1 150714Z 19015KT 23/13 A2984 RMK A01 T02260128  RH  054%=      5-min Rain = 0
KEA1 150715Z 19017KT 23/13 A2983 RMK A01 T02260128  RH  054%=      5-min Rain = 0
KEA1 150716Z 19018KT 23/13 A2984 RMK A01 T02260127  RH  054%=      5-min Rain = 0
KEA1 150717Z 19016G21KT 23/13 A2983 RMK A01 T02270127  RH  053%=      5-min Rain = 0
KEA1 150718Z 20019KT 23/13 A2983 RMK A01 T02280127  RH  053%=      5-min Rain = 0
KEA1 150719Z 20018KT 23/13 A2983 RMK A01 T02290127  RH  053%=      5-min Rain = 0
KEA1 150720Z 19018G23KT 23/13 A2983 RMK A01 T02290127  RH  052%=      5-min Rain = 0
KEA1 150721Z 19019KT 23/13 A2983 RMK A01 T02290126  RH  052%=      5-min Rain = 0
KEA1 150722Z 19016KT 23/13 A2983 RMK A01 T02300126  RH  052%=      5-min Rain = 0
KEA1 150723Z 19016KT 23/13 A2983 RMK A01 T02300126  RH  052%=      5-min Rain = 0
KEA1 150724Z 19016KT 23/13 A2983 RMK A01 T02290126  RH  052%=      5-min Rain = 0
KEA1 150725Z 19017KT 23/13 A2983 RMK A01 T02290126  RH  052%=      5-min Rain = 0
KEA1 150726Z 19015KT 23/13 A2983 RMK A01 T02290126  RH  052%=      5-min Rain = 0
KEA1 150727Z 19016G21KT 23/13 A2983 RMK A01 T02290126  RH  052%=      5-min Rain = 0
KEA1 150728Z 19018KT 23/13 A2983 RMK A01 T02280125  RH  052%=      5-min Rain = 0
KEA1 150729Z 19019KT 23/13 A2983 RMK A01 T02290125  RH  052%=      5-min Rain = 0
KEA1 150730Z 19016KT 23/13 A2983 RMK A01 T02300125  RH  052%=      5-min Rain = 0
KEA1 150731Z 19016KT 23/13 A2983 RMK A01 T02300126  RH  052%=      5-min Rain = 0
KEA1 150732Z 19019KT 23/13 A2983 RMK A01 T02290125  RH  052%=      5-min Rain = 0
KEA1 150733Z 19017KT 23/13 A2983 RMK A01 T02290125  RH  052%=      5-min Rain = 0
KEA1 150734Z 19018KT 23/13 A2983 RMK A01 T02290125  RH  052%=      5-min Rain = 0
KEA1 150735Z 19017KT 23/13 A2983 RMK A01 T02290125  RH  052%=      5-min Rain = 0
KEA1 150736Z 19016KT 23/13 A2983 RMK A01 T02290125  RH  052%=      5-min Rain = 0
KEA1 150737Z 19018KT 23/13 A2983 RMK A01 T02280125  RH  052%=      5-min Rain = 0
KEA1 150738Z 19019KT 23/13 A2983 RMK A01 T02280125  RH  052%=      5-min Rain = 0
KEA1 150739Z 19017G22KT 23/13 A2983 RMK A01 T02280125  RH  052%=      5-min Rain = 0
KEA1 150740Z 19017KT 23/13 A2983 RMK A01 T02290125  RH  052%=      5-min Rain = 0
KEA1 150741Z 19018KT 23/13 A2983 RMK A01 T02280125  RH  052%=      5-min Rain = 0
KEA1 150742Z 20016KT 23/13 A2983 RMK A01 T02290125  RH  052%=      5-min Rain = 0
KEA1 150743Z 19016KT 23/13 A2983 RMK A01 T02270125  RH  052%=      5-min Rain = 0
KEA1 150744Z 20017G22KT 23/13 A2983 RMK A01 T02270125  RH  053%=      5-min Rain = 0
KEA1 150745Z 20016G21KT 23/13 A2983 RMK A01 T02270125  RH  053%=      5-min Rain = 0
KEA1 150746Z 19018KT 23/13 A2983 RMK A01 T02270125  RH  053%=      5-min Rain = 0
KEA1 150747Z 20015G20KT 23/13 A2983 RMK A01 T02270126  RH  053%=      5-min Rain = 0
KEA1 150748Z 20019G24KT 23/13 A2983 RMK A01 T02270126  RH  053%=      5-min Rain = 0
KEA1 150749Z 19017KT 23/13 A2982 RMK A01 T02270125  RH  053%=      5-min Rain = 0
KEA1 150750Z 20019KT 23/13 A2982 RMK A01 T02280126  RH  052%=      5-min Rain = 0
KEA1 150751Z 20018G24KT 23/13 A2982 RMK A01 T02280126  RH  052%=      5-min Rain = 0
KEA1 150752Z 20016G21KT 23/13 A2982 RMK A01 T02290126  RH  052%=      5-min Rain = 0
KEA1 150753Z 20017G25KT 23/13 A2983 RMK A01 T02280126  RH  053%=      5-min Rain = 0
KEA1 150754Z 20017KT 23/13 A2982 RMK A01 T02270126  RH  053%=      5-min Rain = 0
KEA1 150755Z 20017KT 23/13 A2982 RMK A01 T02270127  RH  053%=      5-min Rain = 0
KEA1 150756Z 20016KT 23/13 A2982 RMK A01 T02270126  RH  053%=      5-min Rain = 0
KEA1 150757Z 20019KT 23/13 A2982 RMK A01 T02280127  RH  053%=      5-min Rain = 0
KEA1 150758Z 20021G26KT 23/13 A2982 RMK A01 T02280127  RH  053%=      5-min Rain = 0
KEA1 150759Z 19018KT 23/13 A2982 RMK A01 T02290127  RH  053%=      5-min Rain = 0
KEA1 150800Z 20017KT 23/13 A2982 RMK A01 T02290127  RH  053%=      5-min Rain = 0
KEA1 150801Z 20018KT 23/13 A2982 RMK A01 T02290128  RH  053%=      5-min Rain = 0
KEA1 150802Z 20018KT 23/13 A2982 RMK A01 T02280128  RH  053%=      5-min Rain = 0
KEA1 150803Z 20019KT 23/13 A2982 RMK A01 T02280128  RH  053%=      5-min Rain = 0
KEA1 150804Z 20019G24KT 23/13 A2982 RMK A01 T02280128  RH  053%=      5-min Rain = 0
KEA1 150805Z 20016KT 23/13 A2982 RMK A01 T02280129  RH  053%=      5-min Rain = 0
KEA1 150806Z 20016KT 23/13 A2982 RMK A01 T02280129  RH  054%=      5-min Rain = 0
KEA1 150807Z 20017KT 23/13 A2982 RMK A01 T02270129  RH  054%=      5-min Rain = 0
KEA1 150808Z 20018KT 23/13 A2982 RMK A01 T02270129  RH  054%=      5-min Rain = 0
KEA1 150809Z 20019KT 23/13 A2982 RMK A01 T02270129  RH  054%=      5-min Rain = 0
KEA1 150810Z 20018G23KT 23/13 A2982 RMK A01 T02270129  RH  054%=      5-min Rain = 0
KEA1 150811Z 20018KT 23/13 A2982 RMK A01 T02270130  RH  054%=      5-min Rain = 0
KEA1 150812Z 20017KT 23/13 A2982 RMK A01 T02260130  RH  054%=      5-min Rain = 0
KEA1 150813Z 20017KT 23/13 A2982 RMK A01 T02260130  RH  055%=      5-min Rain = 0
KEA1 150814Z 20018G23KT 23/13 A2982 RMK A01 T02250130  RH  055%=      5-min Rain = 0
KEA1 150815Z 19017KT 23/13 A2982 RMK A01 T02260130  RH  055%=      5-min Rain = 0
KEA1 150816Z 20017G22KT 23/13 A2982 RMK A01 T02260130  RH  055%=      5-min Rain = 0
KEA1 150817Z 20018KT 23/13 A2982 RMK A01 T02260131  RH  055%=      5-min Rain = 0
KEA1 150818Z 19017KT 23/13 A2982 RMK A01 T02260131  RH  055%=      5-min Rain = 0
KEA1 150819Z 20015G20KT 23/13 A2982 RMK A01 T02250131  RH  055%=      5-min Rain = 0
KEA1 150820Z 20016KT 23/13 A2982 RMK A01 T02250131  RH  055%=      5-min Rain = 0
KEA1 150821Z 20017KT 22/13 A2982 RMK A01 T02240131  RH  055%=      5-min Rain = 0
KEA1 150822Z 20019KT 22/13 A2982 RMK A01 T02240131  RH  055%=      5-min Rain = 0
KEA1 150823Z 20017KT 23/13 A2982 RMK A01 T02250131  RH  055%=      5-min Rain = 0
KEA1 150824Z 20019KT 23/13 A2982 RMK A01 T02250131  RH  055%=      5-min Rain = 0
KEA1 150825Z 20016G21KT 23/13 A2982 RMK A01 T02260131  RH  055%=      5-min Rain = 0
KEA1 150826Z 19017KT 23/13 A2982 RMK A01 T02260131  RH  055%=      5-min Rain = 0
KEA1 150827Z 20016KT 23/13 A2982 RMK A01 T02250131  RH  055%=      5-min Rain = 0
KEA1 150828Z 20017KT 23/13 A2982 RMK A01 T02250131  RH  055%=      5-min Rain = 0
KEA1 150829Z 20016KT 23/13 A2982 RMK A01 T02250131  RH  056%=      5-min Rain = 0
KEA1 150830Z 20015KT 22/13 A2982 RMK A01 T02240131  RH  056%=      5-min Rain = 0
KEA1 150831Z 20015KT 22/13 A2982 RMK A01 T02240132  RH  056%=      5-min Rain = 0
KEA1 150832Z 20016KT 22/13 A2982 RMK A01 T02240132  RH  056%=      5-min Rain = 0
KEA1 150833Z 20016KT 22/13 A2982 RMK A01 T02240132  RH  056%=      5-min Rain = 0
KEA1 150834Z 20016KT 22/13 A2982 RMK A01 T02230132  RH  056%=      5-min Rain = 0
KEA1 150835Z 20018KT 22/13 A2982 RMK A01 T02230132  RH  056%=      5-min Rain = 0
KEA1 150836Z 20018KT 22/13 A2981 RMK A01 T02240132  RH  056%=      5-min Rain = 0
KEA1 150837Z 20016KT 22/13 A2982 RMK A01 T02240132  RH  056%=      5-min Rain = 0
KEA1 150838Z 20015KT 22/13 A2982 RMK A01 T02240132  RH  056%=      5-min Rain = 0
KEA1 150839Z 20015KT 22/13 A2982 RMK A01 T02230132  RH  056%=      5-min Rain = 0
KEA1 150840Z 20017G22KT 22/13 A2982 RMK A01 T02230132  RH  056%=      5-min Rain = 0
KEA1 150841Z 20017KT 22/13 A2982 RMK A01 T02230132  RH  056%=      5-min Rain = 0
KEA1 150842Z 20015KT 22/13 A2982 RMK A01 T02240132  RH  056%=      5-min Rain = 0
KEA1 150843Z 20015KT 22/13 A2982 RMK A01 T02240132  RH  056%=      5-min Rain = 0
KEA1 150844Z 21016KT 22/13 A2982 RMK A01 T02230132  RH  056%=      5-min Rain = 0
KEA1 150845Z 21018KT 22/13 A2982 RMK A01 T02230132  RH  056%=      5-min Rain = 0
KEA1 150846Z 20015KT 22/13 A2982 RMK A01 T02240132  RH  056%=      5-min Rain = 0
KEA1 150847Z 20016KT 22/13 A2982 RMK A01 T02240132  RH  056%=      5-min Rain = 0
KEA1 150848Z 20014KT 22/13 A2982 RMK A01 T02240132  RH  056%=      5-min Rain = 0
KEA1 150849Z 20015KT 22/13 A2982 RMK A01 T02240132  RH  056%=      5-min Rain = 0
KEA1 150850Z 20015KT 22/13 A2982 RMK A01 T02240132  RH  056%=      5-min Rain = 0
KEA1 150851Z 20015KT 22/13 A2982 RMK A01 T02230132  RH  056%=      5-min Rain = 0
KEA1 150852Z 20017KT 22/13 A2982 RMK A01 T02230131  RH  056%=      5-min Rain = 0
KEA1 150853Z 20015KT 22/13 A2982 RMK A01 T02240132  RH  056%=      5-min Rain = 0
KEA1 150854Z 21013KT 22/13 A2982 RMK A01 T02240132  RH  056%=      5-min Rain = 0
KEA1 150855Z 21015KT 22/13 A2982 RMK A01 T02230132  RH  056%=      5-min Rain = 0
KEA1 150856Z 20015KT 22/13 A2982 RMK A01 T02230132  RH  056%=      5-min Rain = 0
KEA1 150857Z 20016KT 22/13 A2982 RMK A01 T02230132  RH  056%=      5-min Rain = 0
KEA1 150858Z 21016KT 22/13 A2982 RMK A01 T02240132  RH  056%=      5-min Rain = 0
KEA1 150859Z 20016KT 23/13 A2982 RMK A01 T02250131  RH  056%=      5-min Rain = 0
KEA1 150900Z 20016KT 23/13 A2982 RMK A01 T02250131  RH  055%=      5-min Rain = 0
KEA1 150901Z 20016KT 22/13 A2982 RMK A01 T02240132  RH  056%=      5-min Rain = 0
KEA1 150902Z 20016KT 22/13 A2982 RMK A01 T02240131  RH  056%=      5-min Rain = 0
KEA1 150903Z 20017KT 22/13 A2982 RMK A01 T02240131  RH  056%=      5-min Rain = 0
KEA1 150904Z 20017KT 22/13 A2982 RMK A01 T02240131  RH  055%=      5-min Rain = 0
KEA1 150905Z 21016KT 23/13 A2982 RMK A01 T02250131  RH  055%=      5-min Rain = 0
KEA1 150906Z 20016KT 23/13 A2982 RMK A01 T02250131  RH  055%=      5-min Rain = 0
KEA1 150907Z 20015KT 22/13 A2982 RMK A01 T02240130  RH  055%=      5-min Rain = 0
KEA1 150908Z 20014KT 22/13 A2982 RMK A01 T02240130  RH  055%=      5-min Rain = 0
KEA1 150909Z 20015KT 22/13 A2982 RMK A01 T02240130  RH  055%=      5-min Rain = 0
KEA1 150910Z 20014KT 22/13 A2983 RMK A01 T02240130  RH  055%=      5-min Rain = 0
KEA1 150911Z 21014KT 22/13 A2983 RMK A01 T02240129  RH  055%=      5-min Rain = 0
KEA1 150912Z 20014KT 22/13 A2983 RMK A01 T02230129  RH  055%=      5-min Rain = 0
KEA1 150913Z 20015KT 22/13 A2982 RMK A01 T02240129  RH  055%=      5-min Rain = 0
KEA1 150914Z 20018KT 22/13 A2982 RMK A01 T02240129  RH  055%=      5-min Rain = 0
KEA1 150915Z 20015KT 23/13 A2982 RMK A01 T02250128  RH  054%=      5-min Rain = 0
KEA1 150916Z 20016KT 23/13 A2982 RMK A01 T02250129  RH  054%=      5-min Rain = 0
KEA1 150917Z 20016KT 23/13 A2982 RMK A01 T02250128  RH  054%=      5-min Rain = 0
KEA1 150918Z 20015G20KT 23/13 A2983 RMK A01 T02250128  RH  054%=      5-min Rain = 0
KEA1 150919Z 21016KT 22/13 A2983 RMK A01 T02240128  RH  054%=      5-min Rain = 0
KEA1 150920Z 20014KT 22/13 A2983 RMK A01 T02240127  RH  054%=      5-min Rain = 0
KEA1 150921Z 20015KT 22/13 A2983 RMK A01 T02240127  RH  054%=      5-min Rain = 0
KEA1 150922Z 20014G19KT 22/13 A2983 RMK A01 T02230127  RH  054%=      5-min Rain = 0
KEA1 150923Z 20014G19KT 22/13 A2983 RMK A01 T02230127  RH  054%=      5-min Rain = 0
KEA1 150924Z 20014KT 22/13 A2983 RMK A01 T02220126  RH  054%=      5-min Rain = 0
KEA1 150925Z 20015KT 22/13 A2983 RMK A01 T02230126  RH  054%=      5-min Rain = 0
KEA1 150926Z 20015KT 22/13 A2983 RMK A01 T02220126  RH  054%=      5-min Rain = 0
KEA1 150927Z 20016KT 22/13 A2983 RMK A01 T02220126  RH  054%=      5-min Rain = 0
KEA1 150928Z 20014KT 22/13 A2983 RMK A01 T02220126  RH  054%=      5-min Rain = 0
KEA1 150929Z 20016KT 22/13 A2983 RMK A01 T02220125  RH  054%=      5-min Rain = 0
KEA1 150930Z 20015KT 22/13 A2983 RMK A01 T02220125  RH  054%=      5-min Rain = 0
KEA1 150931Z 20015KT 22/13 A2983 RMK A01 T02220125  RH  054%=      5-min Rain = 0
KEA1 150932Z 20015KT 22/12 A2983 RMK A01 T02210124  RH  054%=      5-min Rain = 0
KEA1 150933Z 20015KT 22/12 A2983 RMK A01 T02220124  RH  054%=      5-min Rain = 0
KEA1 150934Z 20016KT 22/12 A2983 RMK A01 T02220124  RH  054%=      5-min Rain = 0
KEA1 150935Z 20016KT 22/12 A2983 RMK A01 T02220123  RH  053%=      5-min Rain = 0
KEA1 150936Z 20017KT 22/12 A2983 RMK A01 T02230123  RH  053%=      5-min Rain = 0
KEA1 150937Z 21014KT 22/12 A2983 RMK A01 T02230122  RH  053%=      5-min Rain = 0
KEA1 150938Z 21016KT 22/12 A2983 RMK A01 T02220122  RH  053%=      5-min Rain = 0
KEA1 150939Z 20015KT 22/12 A2983 RMK A01 T02210121  RH  053%=      5-min Rain = 0
KEA1 150940Z 21016KT 22/12 A2983 RMK A01 T02210121  RH  053%=      5-min Rain = 0
KEA1 150941Z 21014KT 22/12 A2983 RMK A01 T02210120  RH  053%=      5-min Rain = 0
KEA1 150942Z 21015KT 22/12 A2983 RMK A01 T02220120  RH  052%=      5-min Rain = 0
KEA1 150943Z 21013KT 22/12 A2983 RMK A01 T02220120  RH  052%=      5-min Rain = 0
KEA1 150944Z 20015KT 22/12 A2983 RMK A01 T02220120  RH  052%=      5-min Rain = 0
KEA1 150945Z 20014KT 22/12 A2983 RMK A01 T02210119  RH  052%=      5-min Rain = 0
KEA1 150946Z 21015KT 22/12 A2983 RMK A01 T02200119  RH  052%=      5-min Rain = 0
KEA1 150947Z 21017KT 22/12 A2983 RMK A01 T02200118  RH  052%=      5-min Rain = 0
KEA1 150948Z 20015KT 22/12 A2983 RMK A01 T02210118  RH  052%=      5-min Rain = 0
KEA1 150949Z 21014G20KT 22/12 A2983 RMK A01 T02220119  RH  052%=      5-min Rain = 0
KEA1 150950Z 21013KT 22/12 A2983 RMK A01 T02210118  RH  052%=      5-min Rain = 0
KEA1 150951Z 20014KT 22/12 A2983 RMK A01 T02200117  RH  052%=      5-min Rain = 0
KEA1 150952Z 21017KT 22/12 A2983 RMK A01 T02200117  RH  052%=      5-min Rain = 0
KEA1 150953Z 20015KT 22/12 A2983 RMK A01 T02210116  RH  051%=      5-min Rain = 0
KEA1 150954Z 20018KT 22/12 A2983 RMK A01 T02220116  RH  051%=      5-min Rain = 0
KEA1 150955Z 21015KT 22/12 A2983 RMK A01 T02230115  RH  051%=      5-min Rain = 0
KEA1 150956Z 21014G19KT 22/12 A2983 RMK A01 T02220115  RH  051%=      5-min Rain = 0
KEA1 150957Z 20017KT 22/12 A2983 RMK A01 T02210115  RH  051%=      5-min Rain = 0
KEA1 150958Z 21016G21KT 22/12 A2983 RMK A01 T02220115  RH  051%=      5-min Rain = 0
KEA1 150959Z 21016KT 22/12 A2983 RMK A01 T02220115  RH  050%=      5-min Rain = 0
KEA1 151000Z 21018G25KT 22/12 A2983 RMK A01 T02220115  RH  050%=      5-min Rain = 0
KEA1 151001Z 21017KT 22/11 A2983 RMK A01 T02230114  RH  050%=      5-min Rain = 0
KEA1 151002Z 21017KT 22/11 A2983 RMK A01 T02230114  RH  050%=      5-min Rain = 0
KEA1 151003Z 20017KT 22/11 A2983 RMK A01 T02230114  RH  050%=      5-min Rain = 0
KEA1 151004Z 20020KT 22/11 A2983 RMK A01 T02220114  RH  050%=      5-min Rain = 0
KEA1 151005Z 20018KT 22/11 A2983 RMK A01 T02220114  RH  050%=      5-min Rain = 0
KEA1 151006Z 20019KT 22/11 A2983 RMK A01 T02230114  RH  050%=      5-min Rain = 0
KEA1 151007Z 21015KT 22/11 A2983 RMK A01 T02220113  RH  050%=      5-min Rain = 0
KEA1 151008Z 21016KT 22/11 A2983 RMK A01 T02220114  RH  050%=      5-min Rain = 0
KEA1 151009Z 20016KT 22/11 A2983 RMK A01 T02200113  RH  051%=      5-min Rain = 0
KEA1 151010Z 21017KT 22/11 A2983 RMK A01 T02190113  RH  051%=      5-min Rain = 0
KEA1 151011Z 21016G21KT 22/11 A2983 RMK A01 T02190113  RH  051%=      5-min Rain = 0
KEA1 151012Z 20018KT 22/11 A2983 RMK A01 T02190113  RH  051%=      5-min Rain = 0
KEA1 151013Z 21017KT 22/11 A2982 RMK A01 T02200113  RH  051%=      5-min Rain = 0
KEA1 151014Z 20017KT 22/11 A2983 RMK A01 T02190113  RH  051%=      5-min Rain = 0
KEA1 151015Z 21017G23KT 22/11 A2983 RMK A01 T02190113  RH  051%=      5-min Rain = 0
KEA1 151016Z 20018KT 22/11 A2983 RMK A01 T02180113  RH  051%=      5-min Rain = 0
KEA1 151017Z 21017KT 22/11 A2983 RMK A01 T02190113  RH  051%=      5-min Rain = 0
KEA1 151018Z 21020KT 22/11 A2983 RMK A01 T02190112  RH  051%=      5-min Rain = 0
KEA1 151019Z 21018KT 22/11 A2983 RMK A01 T02190112  RH  051%=      5-min Rain = 0
KEA1 151020Z 21016KT 22/11 A2983 RMK A01 T02190112  RH  051%=      5-min Rain = 0
KEA1 151021Z 21018G25KT 22/11 A2983 RMK A01 T02190112  RH  051%=      5-min Rain = 0
KEA1 151022Z 21017KT 22/11 A2983 RMK A01 T02190112  RH  051%=      5-min Rain = 0
KEA1 151023Z 21016KT 22/11 A2983 RMK A01 T02190112  RH  051%=      5-min Rain = 0
KEA1 151024Z 20016KT 22/11 A2983 RMK A01 T02180112  RH  051%=      5-min Rain = 0
KEA1 151025Z 20016KT 22/11 A2983 RMK A01 T02180112  RH  051%=      5-min Rain = 0
KEA1 151026Z 20016KT 22/11 A2983 RMK A01 T02170111  RH  051%=      5-min Rain = 0
KEA1 151027Z 20016KT 22/11 A2983 RMK A01 T02170112  RH  051%=      5-min Rain = 0
KEA1 151028Z 21015G20KT 22/11 A2983 RMK A01 T02170112  RH  051%=      5-min Rain = 0
KEA1 151029Z 21017KT 22/11 A2983 RMK A01 T02160111  RH  051%=      5-min Rain = 0
KEA1 151030Z 21020KT 22/11 A2983 RMK A01 T02170111  RH  051%=      5-min Rain = 0
KEA1 151031Z 21018KT 22/11 A2983 RMK A01 T02180111  RH  051%=      5-min Rain = 0
KEA1 151032Z 21018G24KT 22/11 A2983 RMK A01 T02190111  RH  050%=      5-min Rain = 0
KEA1 151033Z 21019KT 22/11 A2983 RMK A01 T02200111  RH  050%=      5-min Rain = 0
KEA1 151034Z 22018G24KT 22/11 A2983 RMK A01 T02200111  RH  050%=      5-min Rain = 0
KEA1 151035Z 21019G24KT 22/11 A2983 RMK A01 T02200111  RH  050%=      5-min Rain = 0
KEA1 151036Z 21017KT 22/11 A2983 RMK A01 T02200111  RH  050%=      5-min Rain = 0
KEA1 151037Z 21018KT 22/11 A2983 RMK A01 T02190111  RH  050%=      5-min Rain = 0
KEA1 151038Z 21018KT 22/11 A2983 RMK A01 T02180111  RH  050%=      5-min Rain = 0
KEA1 151039Z 21017KT 22/11 A2983 RMK A01 T02180111  RH  051%=      5-min Rain = 0
KEA1 151040Z 21020KT 22/11 A2982 RMK A01 T02180111  RH  051%=      5-min Rain = 0
KEA1 151041Z 21018KT 22/11 A2982 RMK A01 T02190111  RH  050%=      5-min Rain = 0
KEA1 151042Z 21017KT 22/11 A2983 RMK A01 T02200111  RH  050%=      5-min Rain = 0
KEA1 151043Z 22017KT 22/11 A2983 RMK A01 T02190111  RH  050%=      5-min Rain = 0
KEA1 151044Z 21020G29KT 22/11 A2982 RMK A01 T02190111  RH  050%=      5-min Rain = 0
KEA1 151045Z 22019G24KT 22/11 A2982 RMK A01 T02190111  RH  050%=      5-min Rain = 0
KEA1 151046Z 21020KT 22/11 A2982 RMK A01 T02210111  RH  050%=      5-min Rain = 0
KEA1 151047Z 21022G28KT 22/11 A2982 RMK A01 T02210110  RH  050%=      5-min Rain = 0
KEA1 151048Z 21018G25KT 22/11 A2982 RMK A01 T02210110  RH  049%=      5-min Rain = 0
KEA1 151049Z 21018KT 22/11 A2982 RMK A01 T02210110  RH  049%=      5-min Rain = 0
KEA1 151050Z 21016KT 22/11 A2982 RMK A01 T02200110  RH  050%=      5-min Rain = 0
KEA1 151051Z 21020G26KT 22/11 A2982 RMK A01 T02180110  RH  050%=      5-min Rain = 0
KEA1 151052Z 21020KT 22/11 A2982 RMK A01 T02190110  RH  050%=      5-min Rain = 0
KEA1 151053Z 22020KT 22/11 A2982 RMK A01 T02190109  RH  050%=      5-min Rain = 0
KEA1 151054Z 21017KT 22/11 A2982 RMK A01 T02190109  RH  050%=      5-min Rain = 0
KEA1 151055Z 22016KT 22/11 A2983 RMK A01 T02180109  RH  050%=      5-min Rain = 0
KEA1 151056Z 21018KT 22/11 A2983 RMK A01 T02170109  RH  050%=      5-min Rain = 0
KEA1 151057Z 21017KT 22/11 A2983 RMK A01 T02170108  RH  050%=      5-min Rain = 0
KEA1 151058Z 21019KT 22/11 A2983 RMK A01 T02170108  RH  050%=      5-min Rain = 0
KEA1 151059Z 21019KT 22/11 A2982 RMK A01 T02170108  RH  050%=      5-min Rain = 0
KEA1 151100Z 21018KT 22/11 A2983 RMK A01 T02170108  RH  050%=      5-min Rain = 0
KEA1 151101Z 21016G21KT 22/11 A2983 RMK A01 T02170108  RH  050%=      5-min Rain = 0
KEA1 151102Z 21017KT 22/11 A2983 RMK A01 T02160108  RH  050%=      5-min Rain = 0
KEA1 151103Z 21017KT 22/11 A2983 RMK A01 T02150108  RH  050%=      5-min Rain = 0
KEA1 151104Z 21016KT 22/11 A2983 RMK A01 T02150107  RH  050%=      5-min Rain = 0
KEA1 151105Z 22015KT 22/11 A2983 RMK A01 T02150107  RH  050%=      5-min Rain = 0
KEA1 151106Z 22015G22KT 21/11 A2983 RMK A01 T02140107  RH  050%=      5-min Rain = 0
KEA1 151107Z 22014KT 21/11 A2983 RMK A01 T02140107  RH  051%=      5-min Rain = 0
KEA1 151108Z 22013KT 21/11 A2983 RMK A01 T02140108  RH  051%=      5-min Rain = 0
KEA1 151109Z 22013KT 21/11 A2983 RMK A01 T02130109  RH  051%=      5-min Rain = 0
KEA1 151110Z 22013KT 21/11 A2983 RMK A01 T02120108  RH  052%=      5-min Rain = 0
KEA1 151111Z 22016KT 21/11 A2983 RMK A01 T02110109  RH  052%=      5-min Rain = 0
KEA1 151112Z 22016KT 21/11 A2983 RMK A01 T02120110  RH  052%=      5-min Rain = 0
KEA1 151113Z 22017G22KT 21/11 A2983 RMK A01 T02120112  RH  053%=      5-min Rain = 0
KEA1 151114Z 22018KT 21/11 A2983 RMK A01 T02120111  RH  053%=      5-min Rain = 0
KEA1 151115Z 22017KT 21/11 A2983 RMK A01 T02120111  RH  053%=      5-min Rain = 0
KEA1 151116Z 23015KT 21/11 A2983 RMK A01 T02120112  RH  053%=      5-min Rain = 0
KEA1 151117Z 22015KT 21/11 A2983 RMK A01 T02110114  RH  054%=      5-min Rain = 0
KEA1 151118Z 22014KT 21/11 A2983 RMK A01 T02110114  RH  054%=      5-min Rain = 0
KEA1 151119Z 23012KT 21/11 A2984 RMK A01 T02090113  RH  054%=      5-min Rain = 0
KEA1 151120Z 23012KT 21/11 A2984 RMK A01 T02070111  RH  054%=      5-min Rain = 0
KEA1 151121Z 24012KT 21/11 A2984 RMK A01 T02050111  RH  054%=      5-min Rain = 0
KEA1 151122Z 24012KT 21/11 A2984 RMK A01 T02050110  RH  054%=      5-min Rain = 0
KEA1 151123Z 24014KT 21/11 A2984 RMK A01 T02050110  RH  054%=      5-min Rain = 0
KEA1 151124Z 23013KT 20/11 A2984 RMK A01 T02040108  RH  054%=      5-min Rain = 0
KEA1 151125Z 24013KT 20/11 A2984 RMK A01 T02040107  RH  054%=      5-min Rain = 0
KEA1 151126Z 24012KT 20/11 A2984 RMK A01 T02020106  RH  054%=      5-min Rain = 0
KEA1 151127Z 24013KT 20/11 A2984 RMK A01 T02000105  RH  054%=      5-min Rain = 0
KEA1 151128Z 24012KT 20/11 A2984 RMK A01 T02000105  RH  054%=      5-min Rain = 0
KEA1 151129Z 24011KT 20/10 A2984 RMK A01 T01980104  RH  054%=      5-min Rain = 0
KEA1 151130Z 24010KT 20/10 A2984 RMK A01 T01970104  RH  055%=      5-min Rain = 0
KEA1 151131Z 25009KT 20/10 A2984 RMK A01 T01960103  RH  055%=      5-min Rain = 0
KEA1 151132Z 25010KT 19/10 A2984 RMK A01 T01940103  RH  056%=      5-min Rain = 0
KEA1 151133Z 25010KT 19/10 A2984 RMK A01 T01930104  RH  056%=      5-min Rain = 0
KEA1 151134Z 25010KT 19/10 A2984 RMK A01 T01910103  RH  057%=      5-min Rain = 0
KEA1 151135Z 25011KT 19/10 A2984 RMK A01 T01900103  RH  057%=      5-min Rain = 0
KEA1 151136Z 25011KT 19/10 A2984 RMK A01 T01880103  RH  058%=      5-min Rain = 0
KEA1 151137Z 25011KT 19/10 A2984 RMK A01 T01870103  RH  058%=      5-min Rain = 0
KEA1 151138Z 25010KT 19/10 A2984 RMK A01 T01850103  RH  058%=      5-min Rain = 0
KEA1 151139Z 25010KT 18/10 A2985 RMK A01 T01840102  RH  059%=      5-min Rain = 0
KEA1 151140Z 25009KT 18/10 A2985 RMK A01 T01820102  RH  059%=      5-min Rain = 0
KEA1 151141Z 25009KT 18/10 A2985 RMK A01 T01800102  RH  060%=      5-min Rain = 0
KEA1 151142Z 25010KT 18/10 A2985 RMK A01 T01790101  RH  060%=      5-min Rain = 0
KEA1 151143Z 25010KT 18/10 A2985 RMK A01 T01780101  RH  060%=      5-min Rain = 0
KEA1 151144Z 26010KT 18/10 A2985 RMK A01 T01770100  RH  061%=      5-min Rain = 0
KEA1 151145Z 26009KT 18/10 A2985 RMK A01 T01760100  RH  061%=      5-min Rain = 0
KEA1 151146Z 27009KT 18/10 A2985 RMK A01 T01750099  RH  061%=      5-min Rain = 0
KEA1 151147Z 28008KT 17/10 A2986 RMK A01 T01740099  RH  062%=      5-min Rain = 0
KEA1 151148Z 28008KT 17/10 A2986 RMK A01 T01720099  RH  062%=      5-min Rain = 0
KEA1 151149Z 29008KT 17/10 A2986 RMK A01 T01700099  RH  063%=      5-min Rain = 0
KEA1 151150Z 28008KT 17/10 A2986 RMK A01 T01680099  RH  063%=      5-min Rain = 0
KEA1 151151Z 29008KT 17/10 A2986 RMK A01 T01680099  RH  064%=      5-min Rain = 0
KEA1 151152Z 29007KT 17/10 A2986 RMK A01 T01670099  RH  064%=      5-min Rain = 0
KEA1 151153Z 29008KT 17/10 A2986 RMK A01 T01660099  RH  065%=      5-min Rain = 0
KEA1 151154Z 30009KT 17/10 A2986 RMK A01 T01660099  RH  065%=      5-min Rain = 0
KEA1 151155Z 29008KT 17/10 A2986 RMK A01 T01650100  RH  065%=      5-min Rain = 0
KEA1 151156Z 29008KT 16/10 A2986 RMK A01 T01640099  RH  066%=      5-min Rain = 0
KEA1 151157Z 30009KT 16/10 A2986 RMK A01 T01630099  RH  066%=      5-min Rain = 0
KEA1 151158Z 30010KT 16/10 A2987 RMK A01 T01630099  RH  066%=      5-min Rain = 0
KEA1 151159Z 30010KT 16/10 A2987 RMK A01 T01630099  RH  066%=      5-min Rain = 0
KEA1 151200Z 30010KT 16/10 A2987 RMK A01 T01640099  RH  065%=      5-min Rain = 0
KEA1 151201Z 29011KT 17/10 A2987 RMK A01 T01660099  RH  065%=      5-min Rain = 0
KEA1 151202Z 28011KT 17/10 A2987 RMK A01 T01680100  RH  064%=      5-min Rain = 0
KEA1 151203Z 28010KT 17/10 A2987 RMK A01 T01690099  RH  063%=      5-min Rain = 0
KEA1 151204Z 29011KT 17/10 A2987 RMK A01 T01700099  RH  063%=      5-min Rain = 0
KEA1 151205Z 29010KT 17/10 A2987 RMK A01 T01710099  RH  063%=      5-min Rain = 0
KEA1 151206Z 28010KT 17/10 A2987 RMK A01 T01720098  RH  062%=      5-min Rain = 0
KEA1 151207Z 28009KT 17/10 A2987 RMK A01 T01720098  RH  061%=      5-min Rain = 0
KEA1 151208Z 28010KT 17/10 A2987 RMK A01 T01720098  RH  062%=      5-min Rain = 0
KEA1 151209Z 28011KT 17/10 A2987 RMK A01 T01710097  RH  062%=      5-min Rain = 0
KEA1 151210Z 28011KT 17/10 A2987 RMK A01 T01710097  RH  061%=      5-min Rain = 0
KEA1 151211Z 28010KT 17/10 A2987 RMK A01 T01710095  RH  061%=      5-min Rain = 0
KEA1 151212Z 28011KT 17/10 A2987 RMK A01 T01710095  RH  061%=      5-min Rain = 0
KEA1 151213Z 27011KT 17/09 A2987 RMK A01 T01710094  RH  060%=      5-min Rain = 0
KEA1 151214Z 28011KT 17/09 A2987 RMK A01 T01710093  RH  060%=      5-min Rain = 0
KEA1 151215Z 27013KT 17/09 A2987 RMK A01 T01710091  RH  059%=      5-min Rain = 0
KEA1 151216Z 27012KT 17/09 A2988 RMK A01 T01720091  RH  059%=      5-min Rain = 0
KEA1 151217Z 28013KT 17/09 A2988 RMK A01 T01720090  RH  059%=      5-min Rain = 0
KEA1 151218Z 27012KT 17/09 A2988 RMK A01 T01720089  RH  058%=      5-min Rain = 0
KEA1 151219Z 28011KT 17/09 A2988 RMK A01 T01720089  RH  058%=      5-min Rain = 0
KEA1 151220Z 28012KT 17/09 A2988 RMK A01 T01720088  RH  057%=      5-min Rain = 0
KEA1 151221Z 28011KT 17/09 A2988 RMK A01 T01730087  RH  057%=      5-min Rain = 0
KEA1 151222Z 28010KT 17/09 A2988 RMK A01 T01730087  RH  057%=      5-min Rain = 0
KEA1 151223Z 28011KT 17/09 A2988 RMK A01 T01730087  RH  057%=      5-min Rain = 0
KEA1 151224Z 28010KT 17/09 A2988 RMK A01 T01730087  RH  057%=      5-min Rain = 0
KEA1 151225Z 29011KT 17/09 A2988 RMK A01 T01730087  RH  057%=      5-min Rain = 0
KEA1 151226Z 29010KT 17/09 A2988 RMK A01 T01730087  RH  057%=      5-min Rain = 0
KEA1 151227Z 29009KT 17/09 A2988 RMK A01 T01730087  RH  057%=      5-min Rain = 0
KEA1 151228Z 29010KT 17/09 A2989 RMK A01 T01730086  RH  057%=      5-min Rain = 0
KEA1 151229Z 29010KT 17/09 A2989 RMK A01 T01730085  RH  056%=      5-min Rain = 0
KEA1 151230Z 29008KT 17/09 A2989 RMK A01 T01730085  RH  056%=      5-min Rain = 0
KEA1 151231Z 29010KT 17/08 A2989 RMK A01 T01730082  RH  055%=      5-min Rain = 0
KEA1 151232Z 29009KT 17/08 A2989 RMK A01 T01730080  RH  054%=      5-min Rain = 0
KEA1 151233Z 30009KT 17/08 A2989 RMK A01 T01740077  RH  053%=      5-min Rain = 0
KEA1 151234Z 29010KT 17/07 A2989 RMK A01 T01740073  RH  051%=      5-min Rain = 0
KEA1 151235Z 29009KT 18/07 A2989 RMK A01 T01750071  RH  051%=      5-min Rain = 0
KEA1 151236Z 29008KT 18/07 A2989 RMK A01 T01750072  RH  051%=      5-min Rain = 0
KEA1 151237Z 30009KT 18/07 A2989 RMK A01 T01750070  RH  050%=      5-min Rain = 0
KEA1 151238Z 30010KT 18/07 A2989 RMK A01 T01750068  RH  049%=      5-min Rain = 0
KEA1 151239Z 29009KT 18/07 A2989 RMK A01 T01750066  RH  049%=      5-min Rain = 0
KEA1 151240Z 30008KT 18/07 A2989 RMK A01 T01750067  RH  049%=      5-min Rain = 0
KEA1 151241Z 30008KT 18/07 A2989 RMK A01 T01760066  RH  049%=      5-min Rain = 0
KEA1 151242Z 30009KT 18/07 A2989 RMK A01 T01750066  RH  049%=      5-min Rain = 0
KEA1 151243Z 30008KT 18/07 A2989 RMK A01 T01760065  RH  048%=      5-min Rain = 0
KEA1 151244Z 30008KT 18/07 A2989 RMK A01 T01750067  RH  049%=      5-min Rain = 0
KEA1 151245Z 30008KT 18/07 A2989 RMK A01 T01750067  RH  049%=      5-min Rain = 0
KEA1 151246Z 30009KT 18/07 A2989 RMK A01 T01760065  RH  048%=      5-min Rain = 0
KEA1 151247Z 31010KT 18/07 A2989 RMK A01 T01760065  RH  048%=      5-min Rain = 0
KEA1 151248Z 31010KT 18/07 A2989 RMK A01 T01760066  RH  048%=      5-min Rain = 0
KEA1 151249Z 31010KT 18/07 A2989 RMK A01 T01770067  RH  048%=      5-min Rain = 0
KEA1 151250Z 31010KT 18/07 A2989 RMK A01 T01770069  RH  049%=      5-min Rain = 0
KEA1 151251Z 31009KT 18/07 A2989 RMK A01 T01780070  RH  049%=      5-min Rain = 0
KEA1 151252Z 31010KT 18/07 A2989 RMK A01 T01780071  RH  050%=      5-min Rain = 0
KEA1 151253Z 31009KT 18/07 A2989 RMK A01 T01780073  RH  050%=      5-min Rain = 0
KEA1 151254Z 31010KT 18/08 A2989 RMK A01 T01790076  RH  051%=      5-min Rain = 0
KEA1 151255Z 31010KT 18/08 A2989 RMK A01 T01790077  RH  051%=      5-min Rain = 0
KEA1 151256Z 30012KT 18/08 A2989 RMK A01 T01800080  RH  052%=      5-min Rain = 0
KEA1 151257Z 30011KT 18/08 A2989 RMK A01 T01800083  RH  053%=      5-min Rain = 0
KEA1 151258Z 30010KT 18/09 A2989 RMK A01 T01810085  RH  053%=      5-min Rain = 0
KEA1 151259Z 31011KT 18/09 A2989 RMK A01 T01820089  RH  054%=      5-min Rain = 0
KEA1 151300Z 31011KT 18/09 A2989 RMK A01 T01820092  RH  055%=      5-min Rain = 0
KEA1 151301Z 31011KT 18/09 A2989 RMK A01 T01830094  RH  056%=      5-min Rain = 0
KEA1 151302Z 30010KT 18/10 A2989 RMK A01 T01840096  RH  056%=      5-min Rain = 0
KEA1 151303Z 30011KT 18/10 A2989 RMK A01 T01840097  RH  057%=      5-min Rain = 0
KEA1 151304Z 31013KT 19/10 A2989 RMK A01 T01850097  RH  057%=      5-min Rain = 0
KEA1 151305Z 31013KT 19/10 A2989 RMK A01 T01850098  RH  057%=      5-min Rain = 0
KEA1 151306Z 31013KT 19/10 A2989 RMK A01 T01850098  RH  057%=      5-min Rain = 0
KEA1 151307Z 31013KT 19/10 A2989 RMK A01 T01850099  RH  057%=      5-min Rain = 0
KEA1 151308Z 31012KT 19/10 A299 RMK A01 T01860100  RH  057%=      5-min Rain = 0
KEA1 151309Z 31012KT 19/10 A299 RMK A01 T01860099  RH  057%=      5-min Rain = 0
KEA1 151310Z 31013KT 19/10 A299 RMK A01 T01860100  RH  057%=      5-min Rain = 0
KEA1 151311Z 31012KT 19/10 A299 RMK A01 T01860099  RH  057%=      5-min Rain = 0
KEA1 151312Z 30013KT 19/10 A299 RMK A01 T01860100  RH  057%=      5-min Rain = 0
KEA1 151313Z 31013KT 19/10 A299 RMK A01 T01860100  RH  057%=      5-min Rain = 0
KEA1 151314Z 31011KT 19/10 A299 RMK A01 T01860100  RH  057%=      5-min Rain = 0
KEA1 151315Z 30012KT 19/10 A299 RMK A01 T01860101  RH  057%=      5-min Rain = 0
KEA1 151316Z 31013KT 19/10 A299 RMK A01 T01870101  RH  057%=      5-min Rain = 0
KEA1 151317Z 31013KT 19/10 A299 RMK A01 T01860102  RH  058%=      5-min Rain = 0
KEA1 151318Z 31012KT 19/10 A299 RMK A01 T01870102  RH  058%=      5-min Rain = 0
KEA1 151319Z 31013KT 19/10 A299 RMK A01 T01870103  RH  058%=      5-min Rain = 0
KEA1 151320Z 31014KT 19/10 A299 RMK A01 T01870103  RH  058%=      5-min Rain = 0
KEA1 151321Z 30014KT 19/10 A299 RMK A01 T01870103  RH  058%=      5-min Rain = 0
KEA1 151322Z 31011KT 19/10 A299 RMK A01 T01870103  RH  058%=      5-min Rain = 0
KEA1 151323Z 30011KT 19/11 A299 RMK A01 T01870105  RH  059%=      5-min Rain = 0
KEA1 151324Z 30011KT 19/11 A299 RMK A01 T01890106  RH  059%=      5-min Rain = 0
KEA1 151325Z 30011KT 19/11 A299 RMK A01 T01890107  RH  059%=      5-min Rain = 0
KEA1 151326Z 30013KT 19/11 A299 RMK A01 T01900108  RH  059%=      5-min Rain = 0
KEA1 151327Z 30012KT 19/11 A299 RMK A01 T01900107  RH  059%=      5-min Rain = 0
KEA1 151328Z 30013KT 19/11 A299 RMK A01 T01900108  RH  059%=      5-min Rain = 0
KEA1 151329Z 30014KT 19/11 A299 RMK A01 T01900109  RH  059%=      5-min Rain = 0
KEA1 151330Z 31011KT 19/11 A299 RMK A01 T01900109  RH  059%=      5-min Rain = 0
KEA1 151331Z 31013KT 19/11 A299 RMK A01 T01900111  RH  060%=      5-min Rain = 0
KEA1 151332Z 31014KT 19/11 A299 RMK A01 T01910110  RH  059%=      5-min Rain = 0
KEA1 151333Z 31013KT 19/11 A299 RMK A01 T01910111  RH  060%=      5-min Rain = 0
KEA1 151334Z 31015KT 19/11 A299 RMK A01 T01900110  RH  059%=      5-min Rain = 0
KEA1 151335Z 31014KT 19/11 A299 RMK A01 T01910111  RH  060%=      5-min Rain = 0
KEA1 151336Z 31013KT 19/11 A299 RMK A01 T01910110  RH  059%=      5-min Rain = 0
KEA1 151337Z 31011KT 19/11 A299 RMK A01 T01910110  RH  060%=      5-min Rain = 0
KEA1 151338Z 31012KT 19/11 A299 RMK A01 T01920113  RH  060%=      5-min Rain = 0
KEA1 151339Z 31011KT 19/11 A299 RMK A01 T01940113  RH  060%=      5-min Rain = 0
KEA1 151340Z 30011KT 20/11 A299 RMK A01 T01950114  RH  059%=      5-min Rain = 0
KEA1 151341Z 30011KT 20/11 A299 RMK A01 T01950113  RH  059%=      5-min Rain = 0
KEA1 151342Z 30010KT 20/11 A299 RMK A01 T01960114  RH  059%=      5-min Rain = 0
KEA1 151343Z 30011KT 20/11 A299 RMK A01 T01970113  RH  059%=      5-min Rain = 0
KEA1 151344Z 30014KT 20/11 A299 RMK A01 T01960113  RH  059%=      5-min Rain = 0
KEA1 151345Z 30012KT 20/11 A299 RMK A01 T01950113  RH  059%=      5-min Rain = 0
KEA1 151346Z 31014KT 20/11 A299 RMK A01 T01950113  RH  059%=      5-min Rain = 0
KEA1 151347Z 31013KT 20/11 A299 RMK A01 T01950114  RH  059%=      5-min Rain = 0
KEA1 151348Z 30010KT 20/12 A299 RMK A01 T01950115  RH  060%=      5-min Rain = 0
KEA1 151349Z 30014KT 20/12 A299 RMK A01 T01970117  RH  060%=      5-min Rain = 0
KEA1 151350Z 30012KT 20/12 A299 RMK A01 T01980115  RH  059%=      5-min Rain = 0
KEA1 151351Z 30011KT 20/12 A299 RMK A01 T01980118  RH  060%=      5-min Rain = 0
KEA1 151352Z 30013KT 20/12 A299 RMK A01 T02000119  RH  059%=      5-min Rain = 0
KEA1 151353Z 30015KT 20/12 A299 RMK A01 T02010118  RH  059%=      5-min Rain = 0
KEA1 151354Z 30013KT 20/12 A299 RMK A01 T02000118  RH  059%=      5-min Rain = 0
KEA1 151355Z 30014KT 20/12 A299 RMK A01 T02000119  RH  059%=      5-min Rain = 0
KEA1 151356Z 30013KT 20/12 A299 RMK A01 T02000119  RH  059%=      5-min Rain = 0
KEA1 151357Z 29011KT 20/12 A299 RMK A01 T02020120  RH  059%=      5-min Rain = 0
KEA1 151358Z 30012KT 20/12 A299 RMK A01 T02030120  RH  059%=      5-min Rain = 0
KEA1 151359Z 30013KT 20/12 A2989 RMK A01 T02040121  RH  059%=      5-min Rain = 0
KEA1 151400Z 30009KT 20/12 A2989 RMK A01 T02040120  RH  058%=      5-min Rain = 0
KEA1 151401Z 30009G15KT 21/12 A2989 RMK A01 T02050123  RH  059%=      5-min Rain = 0
KEA1 151402Z 30012KT 21/12 A299 RMK A01 T02070122  RH  058%=      5-min Rain = 0
KEA1 151403Z 30011KT 21/12 A299 RMK A01 T02070120  RH  057%=      5-min Rain = 0
KEA1 151404Z 30011KT 21/12 A299 RMK A01 T02070121  RH  058%=      5-min Rain = 0
KEA1 151405Z 29009KT 21/12 A299 RMK A01 T02080122  RH  058%=      5-min Rain = 0
KEA1 151406Z 30012KT 21/12 A299 RMK A01 T02090123  RH  058%=      5-min Rain = 0
KEA1 151407Z 30012KT 21/12 A299 RMK A01 T02090122  RH  057%=      5-min Rain = 0
KEA1 151408Z 30012KT 21/12 A299 RMK A01 T02090122  RH  057%=      5-min Rain = 0
KEA1 151409Z 30010KT 21/12 A299 RMK A01 T02090123  RH  058%=      5-min Rain = 0
KEA1 151410Z 30010KT 21/12 A299 RMK A01 T02100123  RH  057%=      5-min Rain = 0
KEA1 151411Z 31011KT 21/12 A299 RMK A01 T02110122  RH  057%=      5-min Rain = 0
KEA1 151412Z 31009KT 21/12 A299 RMK A01 T02110123  RH  057%=      5-min Rain = 0
KEA1 151413Z 32011KT 21/12 A299 RMK A01 T02120124  RH  057%=      5-min Rain = 0
KEA1 151414Z 31011KT 21/12 A299 RMK A01 T02120124  RH  057%=      5-min Rain = 0
KEA1 151415Z 30010KT 21/13 A299 RMK A01 T02130125  RH  057%=      5-min Rain = 0
KEA1 151416Z 30006KT 21/13 A299 RMK A01 T02140127  RH  057%=      5-min Rain = 0
KEA1 151417Z 32007KT 22/13 A299 RMK A01 T02160128  RH  057%=      5-min Rain = 0
KEA1 151418Z 30008KT 22/13 A299 RMK A01 T02170125  RH  056%=      5-min Rain = 0
KEA1 151419Z 33009KT 22/13 A299 RMK A01 T02170126  RH  056%=      5-min Rain = 0
KEA1 151420Z 32009KT 22/13 A299 RMK A01 T02170125  RH  056%=      5-min Rain = 0
KEA1 151421Z 32008KT 22/13 A2991 RMK A01 T02170127  RH  057%=      5-min Rain = 0
KEA1 151422Z 32009KT 22/13 A299 RMK A01 T02180128  RH  056%=      5-min Rain = 0
KEA1 151423Z 31011KT 22/13 A299 RMK A01 T02190126  RH  055%=      5-min Rain = 0
KEA1 151424Z 32008KT 22/13 A299 RMK A01 T02190127  RH  056%=      5-min Rain = 0
KEA1 151425Z 31009KT 22/13 A299 RMK A01 T02190126  RH  055%=      5-min Rain = 0
KEA1 151426Z 32008KT 22/13 A299 RMK A01 T02190125  RH  055%=      5-min Rain = 0
KEA1 151427Z 33008KT 22/13 A2991 RMK A01 T02190127  RH  056%=      5-min Rain = 0
KEA1 151428Z 31010KT 22/13 A2991 RMK A01 T02200129  RH  056%=      5-min Rain = 0
KEA1 151429Z 31010KT 22/13 A2991 RMK A01 T02220128  RH  055%=      5-min Rain = 0
KEA1 151430Z 30010KT 22/13 A299 RMK A01 T02210127  RH  055%=      5-min Rain = 0
KEA1 151431Z 30008KT 22/13 A299 RMK A01 T02200127  RH  055%=      5-min Rain = 0
KEA1 151432Z 30009KT 22/13 A299 RMK A01 T02210128  RH  056%=      5-min Rain = 0
KEA1 151433Z 32010KT 22/13 A299 RMK A01 T02220129  RH  055%=      5-min Rain = 0
KEA1 151434Z 31008KT 22/13 A299 RMK A01 T02230130  RH  056%=      5-min Rain = 0
KEA1 151435Z 31012KT 23/13 A2991 RMK A01 T02250129  RH  055%=      5-min Rain = 0
KEA1 151436Z 31009KT 22/13 A299 RMK A01 T02240127  RH  054%=      5-min Rain = 0
KEA1 151437Z 31008KT 22/13 A299 RMK A01 T02230129  RH  055%=      5-min Rain = 0
KEA1 151438Z 30010KT 23/13 A299 RMK A01 T02250128  RH  054%=      5-min Rain = 0
KEA1 151439Z 30009KT 22/13 A299 RMK A01 T02240128  RH  054%=      5-min Rain = 0
KEA1 151440Z 31010KT 22/13 A299 RMK A01 T02240129  RH  055%=      5-min Rain = 0
KEA1 151441Z 32008KT 23/13 A299 RMK A01 T02260132  RH  055%=      5-min Rain = 0
KEA1 151442Z 30010KT 23/13 A299 RMK A01 T02300132  RH  054%=      5-min Rain = 0
KEA1 151443Z 31010KT 23/13 A299 RMK A01 T02300131  RH  054%=      5-min Rain = 0
KEA1 151444Z 30011KT 23/13 A299 RMK A01 T02300131  RH  053%=      5-min Rain = 0
KEA1 151445Z 31009KT 23/13 A299 RMK A01 T02300130  RH  053%=      5-min Rain = 0
KEA1 151446Z 31008KT 23/13 A299 RMK A01 T02300131  RH  054%=      5-min Rain = 0
KEA1 151447Z 29009KT 23/13 A299 RMK A01 T02320132  RH  053%=      5-min Rain = 0
KEA1 151448Z 31010KT 23/13 A299 RMK A01 T02330132  RH  053%=      5-min Rain = 0
KEA1 151449Z 32011KT 23/13 A299 RMK A01 T02340132  RH  053%=      5-min Rain = 0
KEA1 151450Z 31012KT 24/13 A299 RMK A01 T02360133  RH  052%=      5-min Rain = 0
KEA1 151451Z 31010KT 24/13 A299 RMK A01 T02360132  RH  052%=      5-min Rain = 0
KEA1 151452Z 31011KT 24/13 A299 RMK A01 T02360133  RH  052%=      5-min Rain = 0
KEA1 151453Z 32010KT 24/13 A299 RMK A01 T02360133  RH  052%=      5-min Rain = 0
KEA1 151454Z 32011KT 24/13 A299 RMK A01 T02370133  RH  052%=      5-min Rain = 0
KEA1 151455Z 32011KT 24/13 A299 RMK A01 T02370132  RH  052%=      5-min Rain = 0
KEA1 151456Z 32011KT 24/13 A299 RMK A01 T02370132  RH  052%=      5-min Rain = 0
KEA1 151457Z 31012KT 24/13 A299 RMK A01 T02360132  RH  052%=      5-min Rain = 0
KEA1 151458Z 32011KT 24/13 A299 RMK A01 T02360132  RH  052%=      5-min Rain = 0
KEA1 151459Z 32012KT 24/13 A299 RMK A01 T02370133  RH  052%=      5-min Rain = 0
KEA1 151500Z 32011KT 24/13 A2989 RMK A01 T02380133  RH  052%=      5-min Rain = 0
KEA1 151501Z 32012KT 24/13 A2989 RMK A01 T02390133  RH  051%=      5-min Rain = 0
KEA1 151502Z 33011KT 24/13 A2989 RMK A01 T02400134  RH  052%=      5-min Rain = 0
KEA1 151503Z 34009KT 24/14 A2989 RMK A01 T02420136  RH  052%=      5-min Rain = 0
KEA1 151504Z 33010KT 24/14 A2989 RMK A01 T02440135  RH  051%=      5-min Rain = 0
KEA1 151505Z 32009KT 25/14 A2989 RMK A01 T02470141  RH  052%=      5-min Rain = 0
KEA1 151506Z 34012KT 25/14 A2989 RMK A01 T02490137  RH  050%=      5-min Rain = 0
KEA1 151507Z 33010KT 25/13 A2989 RMK A01 T02470134  RH  049%=      5-min Rain = 0
KEA1 151508Z 33009KT 25/14 A2989 RMK A01 T02460136  RH  050%=      5-min Rain = 0
KEA1 151509Z 32008KT 25/14 A2989 RMK A01 T02460137  RH  051%=      5-min Rain = 0
KEA1 151510Z 32012KT 25/14 A2989 RMK A01 T02470135  RH  050%=      5-min Rain = 0
KEA1 151511Z 33009KT 25/14 A2989 RMK A01 T02470135  RH  050%=      5-min Rain = 0
KEA1 151512Z 32011KT 25/14 A2989 RMK A01 T02470136  RH  050%=      5-min Rain = 0
KEA1 151513Z 32009KT 25/13 A2989 RMK A01 T02470134  RH  049%=      5-min Rain = 0
KEA1 151514Z 32008KT 25/14 A2989 RMK A01 T02460136  RH  050%=      5-min Rain = 0
KEA1 151515Z 31010KT 25/14 A299 RMK A01 T02480138  RH  050%=      5-min Rain = 0
KEA1 151516Z 30010KT 25/14 A299 RMK A01 T02500136  RH  049%=      5-min Rain = 0
KEA1 151517Z 29010KT 25/14 A299 RMK A01 T02500136  RH  049%=      5-min Rain = 0
KEA1 151518Z 30010KT 25/14 A299 RMK A01 T02500135  RH  049%=      5-min Rain = 0
KEA1 151519Z 30010KT 25/14 A299 RMK A01 T02520138  RH  049%=      5-min Rain = 0
KEA1 151520Z 31011KT 25/14 A299 RMK A01 T02530135  RH  048%=      5-min Rain = 0
KEA1 151521Z 32012KT 25/14 A299 RMK A01 T02520137  RH  049%=      5-min Rain = 0
KEA1 151522Z 32011KT 25/14 A299 RMK A01 T02540136  RH  048%=      5-min Rain = 0
KEA1 151523Z 32010KT 25/14 A299 RMK A01 T02540137  RH  048%=      5-min Rain = 0
KEA1 151524Z 31010KT 26/14 A299 RMK A01 T02550140  RH  049%=      5-min Rain = 0
KEA1 151525Z 31009KT 26/14 A299 RMK A01 T02560135  RH  047%=      5-min Rain = 0
KEA1 151526Z 31011KT 25/14 A299 RMK A01 T02540136  RH  048%=      5-min Rain = 0
KEA1 151527Z 31010KT 25/14 A299 RMK A01 T02540136  RH  048%=      5-min Rain = 0
KEA1 151528Z 32010KT 26/14 A299 RMK A01 T02550136  RH  048%=      5-min Rain = 0
KEA1 151529Z 31011KT 26/14 A299 RMK A01 T02560138  RH  048%=      5-min Rain = 0
KEA1 151530Z 30010KT 26/14 A299 RMK A01 T02580136  RH  047%=      5-min Rain = 0
KEA1 151531Z 29008KT 26/14 A299 RMK A01 T02580139  RH  048%=      5-min Rain = 0
KEA1 151532Z 30009KT 26/14 A299 RMK A01 T02610141  RH  048%=      5-min Rain = 0
KEA1 151533Z 30010KT 26/14 A299 RMK A01 T02630140  RH  047%=      5-min Rain = 0
KEA1 151534Z 29011KT 26/14 A299 RMK A01 T02630139  RH  046%=      5-min Rain = 0
KEA1 151535Z 30011KT 26/14 A299 RMK A01 T02630139  RH  046%=      5-min Rain = 0
KEA1 151536Z 30012KT 26/14 A299 RMK A01 T02630138  RH  046%=      5-min Rain = 0
KEA1 151537Z 30011KT 26/14 A299 RMK A01 T02630137  RH  046%=      5-min Rain = 0
KEA1 151538Z 29009KT 26/14 A299 RMK A01 T02620137  RH  046%=      5-min Rain = 0
KEA1 151539Z 30012KT 26/14 A299 RMK A01 T02610138  RH  047%=      5-min Rain = 0
KEA1 151540Z 30013KT 26/14 A299 RMK A01 T02620138  RH  046%=      5-min Rain = 0
KEA1 151541Z 31010KT 27/14 A299 RMK A01 T02660139  RH  046%=      5-min Rain = 0
KEA1 151542Z 29010KT 27/14 A2991 RMK A01 T02680139  RH  045%=      5-min Rain = 0
KEA1 151543Z 30009KT 27/14 A2991 RMK A01 T02680139  RH  045%=      5-min Rain = 0
KEA1 151544Z 29011KT 27/14 A2991 RMK A01 T02680140  RH  045%=      5-min Rain = 0
KEA1 151545Z 30009KT 27/14 A2991 RMK A01 T02690142  RH  046%=      5-min Rain = 0
KEA1 151546Z 32010G15KT 27/14 A299 RMK A01 T02700141  RH  045%=      5-min Rain = 0
KEA1 151547Z 33012KT 27/14 A299 RMK A01 T02710139  RH  044%=      5-min Rain = 0
KEA1 151548Z 32012KT 27/14 A299 RMK A01 T02710138  RH  044%=      5-min Rain = 0
KEA1 151549Z 32011KT 27/14 A299 RMK A01 T02720138  RH  044%=      5-min Rain = 0
KEA1 151550Z 32011G16KT 27/14 A299 RMK A01 T02710137  RH  044%=      5-min Rain = 0
KEA1 151551Z 32012KT 27/14 A299 RMK A01 T02710140  RH  044%=      5-min Rain = 0
KEA1 151552Z 32014KT 27/14 A299 RMK A01 T02740138  RH  043%=      5-min Rain = 0
KEA1 151553Z 32015KT 27/14 A299 RMK A01 T02730136  RH  043%=      5-min Rain = 0
KEA1 151554Z 32014KT 27/14 A299 RMK A01 T02720135  RH  043%=      5-min Rain = 0
KEA1 151555Z 32013KT 27/14 A299 RMK A01 T02720135  RH  043%=      5-min Rain = 0
KEA1 151556Z 31015KT 27/14 A299 RMK A01 T02730135  RH  043%=      5-min Rain = 0
KEA1 151557Z 32014KT 27/14 A299 RMK A01 T02720135  RH  043%=      5-min Rain = 0
KEA1 151558Z 32012KT 27/14 A299 RMK A01 T02720138  RH  044%=      5-min Rain = 0
KEA1 151559Z 32011KT 28/14 A299 RMK A01 T02760139  RH  043%=      5-min Rain = 0
KEA1 151600Z 32009KT 28/14 A299 RMK A01 T02760138  RH  043%=      5-min Rain = 0
KEA1 151601Z 31014KT 28/14 A299 RMK A01 T02760137  RH  042%=      5-min Rain = 0
KEA1 151602Z 31013KT 28/14 A299 RMK A01 T02750137  RH  042%=      5-min Rain = 0
KEA1 151603Z 31014KT 28/14 A299 RMK A01 T02750136  RH  042%=      5-min Rain = 0
KEA1 151604Z 31012KT 28/14 A299 RMK A01 T02750136  RH  042%=      5-min Rain = 0
KEA1 151605Z 31016KT 28/14 A299 RMK A01 T02760137  RH  042%=      5-min Rain = 0
KEA1 151606Z 32014KT 28/14 A2991 RMK A01 T02780136  RH  042%=      5-min Rain = 0
KEA1 151607Z 32011KT 28/14 A2991 RMK A01 T02770136  RH  042%=      5-min Rain = 0
KEA1 151608Z 32010KT 28/14 A2991 RMK A01 T02780139  RH  043%=      5-min Rain = 0
KEA1 151609Z 30013KT 28/14 A2991 RMK A01 T02810141  RH  042%=      5-min Rain = 0
KEA1 151610Z 30012KT 28/14 A2991 RMK A01 T02820137  RH  041%=      5-min Rain = 0
KEA1 151611Z 31014KT 28/14 A2991 RMK A01 T02820137  RH  041%=      5-min Rain = 0
KEA1 151612Z 31015KT 28/14 A2991 RMK A01 T02810137  RH  041%=      5-min Rain = 0
KEA1 151613Z 31012KT 28/14 A2991 RMK A01 T02810137  RH  041%=      5-min Rain = 0
KEA1 151614Z 31011KT 28/14 A2991 RMK A01 T02810138  RH  041%=      5-min Rain = 0
KEA1 151615Z 31012KT 28/14 A2991 RMK A01 T02810138  RH  042%=      5-min Rain = 0
KEA1 151616Z 30010G16KT 28/14 A2991 RMK A01 T02810139  RH  042%=      5-min Rain = 0
KEA1 151617Z 32014KT 28/14 A2991 RMK A01 T02840138  RH  041%=      5-min Rain = 0
KEA1 151618Z 31013KT 28/14 A2991 RMK A01 T02840135  RH  040%=      5-min Rain = 0
KEA1 151619Z 31010KT 28/14 A2991 RMK A01 T02810136  RH  041%=      5-min Rain = 0
KEA1 151620Z 31011G17KT 28/14 A2991 RMK A01 T02810137  RH  041%=      5-min Rain = 0
KEA1 151621Z 33012KT 28/14 A2991 RMK A01 T02840142  RH  042%=      5-min Rain = 0
KEA1 151622Z 33015KT 29/14 A2991 RMK A01 T02880141  RH  040%=      5-min Rain = 0
KEA1 151623Z 33014KT 29/14 A2991 RMK A01 T02870137  RH  040%=      5-min Rain = 0
KEA1 151624Z 33014KT 29/14 A2991 RMK A01 T02850137  RH  040%=      5-min Rain = 0
KEA1 151625Z 32013KT 29/14 A2991 RMK A01 T02850137  RH  040%=      5-min Rain = 0
KEA1 151626Z 32010G15KT 29/14 A2991 RMK A01 T02860138  RH  040%=      5-min Rain = 0
KEA1 151627Z 33014G20KT 29/14 A2991 RMK A01 T02870141  RH  041%=      5-min Rain = 0
KEA1 151628Z 33014KT 29/14 A2991 RMK A01 T02890136  RH  039%=      5-min Rain = 0
KEA1 151629Z 32015KT 29/13 A2991 RMK A01 T02870133  RH  039%=      5-min Rain = 0
KEA1 151630Z 33014KT 29/13 A2991 RMK A01 T02850132  RH  039%=      5-min Rain = 0
KEA1 151631Z 34014KT 29/14 A2991 RMK A01 T02850135  RH  040%=      5-min Rain = 0
KEA1 151632Z 34014KT 29/14 A2991 RMK A01 T02870135  RH  039%=      5-min Rain = 0
KEA1 151633Z 35014KT 29/14 A2991 RMK A01 T02870135  RH  039%=      5-min Rain = 0
KEA1 151634Z 33013KT 29/14 A2991 RMK A01 T02870136  RH  040%=      5-min Rain = 0
KEA1 151635Z 32015KT 29/13 A2991 RMK A01 T02880134  RH  039%=      5-min Rain = 0
KEA1 151636Z 33014KT 29/13 A2991 RMK A01 T02890133  RH  038%=      5-min Rain = 0
KEA1 151637Z 32010KT 29/13 A2991 RMK A01 T02890134  RH  039%=      5-min Rain = 0
KEA1 151638Z 32012KT 29/14 A2991 RMK A01 T02900135  RH  039%=      5-min Rain = 0
KEA1 151639Z 31009KT 29/13 A2991 RMK A01 T02900133  RH  038%=      5-min Rain = 0
KEA1 151640Z 32010KT 29/14 A2991 RMK A01 T02890138  RH  040%=      5-min Rain = 0
KEA1 151641Z 33012KT 29/14 A2991 RMK A01 T02920140  RH  039%=      5-min Rain = 0
KEA1 151642Z 33013KT 29/14 A2991 RMK A01 T02940138  RH  038%=      5-min Rain = 0
KEA1 151643Z 34010KT 29/14 A2991 RMK A01 T02940136  RH  038%=      5-min Rain = 0
KEA1 151644Z 33013G18KT 29/14 A2991 RMK A01 T02920138  RH  039%=      5-min Rain = 0
KEA1 151645Z 34012KT 30/14 A2991 RMK A01 T02950136  RH  038%=      5-min Rain = 0
KEA1 151646Z 33014KT 30/14 A2991 RMK A01 T02950138  RH  038%=      5-min Rain = 0
KEA1 151647Z 33015KT 30/14 A2991 RMK A01 T02960139  RH  038%=      5-min Rain = 0
KEA1 151648Z 33012KT 30/14 A2991 RMK A01 T02950137  RH  038%=      5-min Rain = 0
KEA1 151649Z 33007KT 29/14 A2991 RMK A01 T02920139  RH  039%=      5-min Rain = 0
KEA1 151650Z 34014KT 30/14 A2991 RMK A01 T02950140  RH  039%=      5-min Rain = 0
KEA1 151651Z 35013KT 30/13 A2991 RMK A01 T02980134  RH  037%=      5-min Rain = 0
KEA1 151652Z 35013KT 30/14 A2991 RMK A01 T02970139  RH  038%=      5-min Rain = 0
KEA1 151653Z 35012KT 30/14 A2991 RMK A01 T02980138  RH  037%=      5-min Rain = 0
KEA1 151654Z 35012KT 30/14 A2991 RMK A01 T02990139  RH  038%=      5-min Rain = 0
KEA1 151655Z 33013KT 30/13 A2991 RMK A01 T03000133  RH  036%=      5-min Rain = 0
KEA1 151656Z 32011KT 30/13 A2992 RMK A01 T02990131  RH  036%=      5-min Rain = 0
KEA1 151657Z 33011KT 30/14 A2991 RMK A01 T02970137  RH  037%=      5-min Rain = 0
KEA1 151658Z 33011KT 30/14 A2991 RMK A01 T03010141  RH  038%=      5-min Rain = 0
KEA1 151659Z 34012KT 30/14 A2991 RMK A01 T03030138  RH  037%=      5-min Rain = 0
KEA1 151700Z 35014KT 30/14 A2991 RMK A01 T03010139  RH  037%=      5-min Rain = 0
KEA1 151701Z 36014KT 30/14 A2991 RMK A01 T03030140  RH  037%=      5-min Rain = 0
KEA1 151702Z 35010KT 30/14 A2991 RMK A01 T03040140  RH  037%=      5-min Rain = 0
KEA1 151703Z 34009KT 30/14 A2991 RMK A01 T03030139  RH  037%=      5-min Rain = 0
KEA1 151704Z 35012G17KT 30/14 A2991 RMK A01 T03020143  RH  038%=      5-min Rain = 0
KEA1 151705Z 35015KT 31/14 A2991 RMK A01 T03050138  RH  036%=      5-min Rain = 0
KEA1 151706Z 36012KT 31/14 A2991 RMK A01 T03050135  RH  035%=      5-min Rain = 0
KEA1 151707Z 35012KT 30/14 A2991 RMK A01 T03030135  RH  036%=      5-min Rain = 0
KEA1 151708Z 34010KT 30/14 A2991 RMK A01 T03000139  RH  037%=      5-min Rain = 0
KEA1 151709Z 34011G16KT 30/14 A2991 RMK A01 T02990140  RH  038%=      5-min Rain = 0
KEA1 151710Z 35012KT 30/14 A2991 RMK A01 T03000139  RH  037%=      5-min Rain = 0
KEA1 151711Z 35013KT 30/13 A2991 RMK A01 T03020132  RH  035%=      5-min Rain = 0
KEA1 151712Z 34012KT 30/13 A2991 RMK A01 T03010131  RH  035%=      5-min Rain = 0
KEA1 151713Z 00012G19KT 30/14 A2991 RMK A01 T03020135  RH  036%=      5-min Rain = 0
KEA1 151714Z 36011KT 31/14 A2991 RMK A01 T03050138  RH  036%=      5-min Rain = 0
KEA1 151715Z 35009KT 31/14 A2991 RMK A01 T03080139  RH  036%=      5-min Rain = 0
KEA1 151716Z 34012KT 31/14 A2991 RMK A01 T03110137  RH  035%=      5-min Rain = 0
KEA1 151717Z 00012KT 31/14 A2991 RMK A01 T03110139  RH  035%=      5-min Rain = 0
KEA1 151718Z 35012KT 31/14 A2991 RMK A01 T03130138  RH  035%=      5-min Rain = 0
KEA1 151719Z 33013KT 31/13 A2991 RMK A01 T03120127  RH  032%=      5-min Rain = 0
KEA1 151720Z 34010KT 31/13 A2991 RMK A01 T03100129  RH  033%=      5-min Rain = 0
KEA1 151721Z 34010KT 31/13 A2991 RMK A01 T03100133  RH  034%=      5-min Rain = 0
KEA1 151722Z 01012KT 31/14 A2991 RMK A01 T03100137  RH  035%=      5-min Rain = 0
KEA1 151723Z 01011KT 31/14 A2991 RMK A01 T03110135  RH  034%=      5-min Rain = 0
KEA1 151724Z 34010KT 31/14 A2991 RMK A01 T03110135  RH  034%=      5-min Rain = 0
KEA1 151725Z 35012G17KT 31/13 A2991 RMK A01 T03130128  RH  032%=      5-min Rain = 0
KEA1 151726Z 36016KT 31/14 A299 RMK A01 T03120135  RH  034%=      5-min Rain = 0
KEA1 151727Z 00012KT 31/13 A2991 RMK A01 T03120133  RH  034%=      5-min Rain = 0
KEA1 151728Z 01012G17KT 31/13 A2991 RMK A01 T03110130  RH  033%=      5-min Rain = 0
KEA1 151729Z 33014KT 31/13 A2991 RMK A01 T03100125  RH  032%=      5-min Rain = 0
KEA1 151730Z 34013KT 31/13 A2991 RMK A01 T03100128  RH  033%=      5-min Rain = 0
KEA1 151731Z 34009KT 31/13 A2991 RMK A01 T03110131  RH  033%=      5-min Rain = 0
KEA1 151732Z 35011KT 31/13 A299 RMK A01 T03100134  RH  034%=      5-min Rain = 0
KEA1 151733Z 01013KT 31/13 A299 RMK A01 T03130133  RH  033%=      5-min Rain = 0
KEA1 151734Z 34014KT 31/13 A2991 RMK A01 T03140126  RH  032%=      5-min Rain = 0
KEA1 151735Z 32010KT 31/12 A2991 RMK A01 T03120119  RH  031%=      5-min Rain = 0
KEA1 151736Z 33009KT 31/13 A2991 RMK A01 T03100126  RH  032%=      5-min Rain = 0
KEA1 151737Z 33015KT 31/12 A2991 RMK A01 T03110124  RH  032%=      5-min Rain = 0
KEA1 151738Z 35013KT 31/12 A299 RMK A01 T03100120  RH  031%=      5-min Rain = 0
KEA1 151739Z 36011KT 31/12 A299 RMK A01 T03110120  RH  031%=      5-min Rain = 0
KEA1 151740Z 00011KT 31/12 A299 RMK A01 T03120120  RH  031%=      5-min Rain = 0
KEA1 151741Z 01013KT 31/12 A299 RMK A01 T03120120  RH  031%=      5-min Rain = 0
KEA1 151742Z 01014KT 31/12 A299 RMK A01 T03130120  RH  031%=      5-min Rain = 0
KEA1 151743Z 01012KT 31/12 A299 RMK A01 T03140117  RH  030%=      5-min Rain = 0
KEA1 151744Z 01010KT 32/13 A299 RMK A01 T03160127  RH  031%=      5-min Rain = 0
KEA1 151745Z 35011KT 32/13 A299 RMK A01 T03190131  RH  032%=      5-min Rain = 0
KEA1 151746Z 34007KT 32/13 A299 RMK A01 T03200129  RH  031%=      5-min Rain = 0
KEA1 151747Z 34008KT 32/14 A299 RMK A01 T03240136  RH  032%=      5-min Rain = 0
KEA1 151748Z 32009KT 32/13 A299 RMK A01 T03230133  RH  032%=      5-min Rain = 0
KEA1 151749Z 35010G16KT 32/13 A299 RMK A01 T03180134  RH  032%=      5-min Rain = 0
KEA1 151750Z 35013KT 32/13 A299 RMK A01 T03220132  RH  032%=      5-min Rain = 0
KEA1 151751Z 34009KT 32/13 A299 RMK A01 T03240131  RH  031%=      5-min Rain = 0
KEA1 151752Z 34009G14KT 32/13 A299 RMK A01 T03240133  RH  031%=      5-min Rain = 0
KEA1 151753Z 00014KT 32/13 A299 RMK A01 T03240129  RH  031%=      5-min Rain = 0
KEA1 151754Z 01011KT 32/13 A299 RMK A01 T03240127  RH  030%=      5-min Rain = 0
KEA1 151755Z 00008KT 32/13 A299 RMK A01 T03240128  RH  030%=      5-min Rain = 0
KEA1 151756Z 35009G15KT 32/13 A299 RMK A01 T03240128  RH  030%=      5-min Rain = 0
KEA1 151757Z 35015KT 32/12 A299 RMK A01 T03240124  RH  029%=      5-min Rain = 0
KEA1 151758Z 33013KT 33/12 A299 RMK A01 T03260120  RH  028%=      5-min Rain = 0
KEA1 151759Z 36017KT 32/11 A299 RMK A01 T03230114  RH  028%=      5-min Rain = 0
KEA1 151800Z 00014KT 32/11 A299 RMK A01 T03200109  RH  027%=      5-min Rain = 0
KEA1 151801Z 01012KT 32/11 A299 RMK A01 T03190111  RH  028%=      5-min Rain = 0
KEA1 151802Z 36009KT 32/12 A299 RMK A01 T03190116  RH  029%=      5-min Rain = 0
KEA1 151803Z 35012KT 32/12 A299 RMK A01 T03220120  RH  029%=      5-min Rain = 0
KEA1 151804Z 36014KT 32/12 A299 RMK A01 T03230119  RH  029%=      5-min Rain = 0
KEA1 151805Z 36010KT 32/11 A299 RMK A01 T03220108  RH  027%=      5-min Rain = 0
KEA1 151806Z 00011G18KT 32/11 A299 RMK A01 T03210111  RH  028%=      5-min Rain = 0
KEA1 151807Z 00014KT 32/11 A299 RMK A01 T03220108  RH  027%=      5-min Rain = 0
KEA1 151808Z 36011KT 32/11 A299 RMK A01 T03230108  RH  027%=      5-min Rain = 0
KEA1 151809Z 35012KT 32/11 A299 RMK A01 T03240107  RH  026%=      5-min Rain = 0
KEA1 151810Z 35012KT 32/11 A299 RMK A01 T03240112  RH  027%=      5-min Rain = 0
KEA1 151811Z 35010G15KT 33/11 A299 RMK A01 T03250107  RH  026%=      5-min Rain = 0
KEA1 151812Z 35013KT 32/11 A299 RMK A01 T03240112  RH  027%=      5-min Rain = 0
KEA1 151813Z 00012KT 33/13 A299 RMK A01 T03260128  RH  030%=      5-min Rain = 0
KEA1 151814Z 34010KT 33/12 A299 RMK A01 T03290121  RH  028%=      5-min Rain = 0
KEA1 151815Z 00012KT 33/12 A299 RMK A01 T03290120  RH  028%=      5-min Rain = 0
KEA1 151816Z 36010KT 33/12 A2989 RMK A01 T03280119  RH  028%=      5-min Rain = 0
KEA1 151817Z 00011KT 33/12 A2989 RMK A01 T03270118  RH  028%=      5-min Rain = 0
KEA1 151818Z 01013KT 33/11 A2989 RMK A01 T03270108  RH  026%=      5-min Rain = 0
KEA1 151819Z 01013KT 33/11 A299 RMK A01 T03260107  RH  026%=      5-min Rain = 0
KEA1 151820Z 35012KT 33/11 A299 RMK A01 T03260110  RH  027%=      5-min Rain = 0
KEA1 151821Z 35008KT 33/11 A299 RMK A01 T03250114  RH  027%=      5-min Rain = 0
KEA1 151822Z 35009KT 33/12 A299 RMK A01 T03270122  RH  029%=      5-min Rain = 0
KEA1 151823Z 00013KT 33/12 A2989 RMK A01 T03340124  RH  028%=      5-min Rain = 0
KEA1 151824Z 35013KT 33/12 A299 RMK A01 T03310123  RH  028%=      5-min Rain = 0
KEA1 151825Z 35011KT 33/12 A299 RMK A01 T03260120  RH  029%=      5-min Rain = 0
KEA1 151826Z 36008KT 32/12 A299 RMK A01 T03230120  RH  029%=      5-min Rain = 0
KEA1 151827Z 00010KT 32/12 A2989 RMK A01 T03210122  RH  030%=      5-min Rain = 0
KEA1 151828Z 33010KT 32/12 A2989 RMK A01 T03230122  RH  029%=      5-min Rain = 0
KEA1 151829Z 33009KT 33/12 A299 RMK A01 T03280115  RH  027%=      5-min Rain = 0
KEA1 151830Z 34011KT 33/11 A299 RMK A01 T03280111  RH  026%=      5-min Rain = 0
KEA1 151831Z 35010G15KT 33/12 A299 RMK A01 T03270115  RH  027%=      5-min Rain = 0
KEA1 151832Z 01009KT 33/12 A2989 RMK A01 T03250116  RH  028%=      5-min Rain = 0
KEA1 151833Z 01010G19KT 33/11 A2989 RMK A01 T03250113  RH  027%=      5-min Rain = 0
KEA1 151834Z 35014KT 33/11 A2989 RMK A01 T03250113  RH  027%=      5-min Rain = 0
KEA1 151835Z 00013KT 33/11 A2989 RMK A01 T03280112  RH  027%=      5-min Rain = 0
KEA1 151836Z 34009KT 33/11 A2989 RMK A01 T03310112  RH  026%=      5-min Rain = 0
KEA1 151837Z 35010G16KT 33/11 A2989 RMK A01 T03330113  RH  026%=      5-min Rain = 0
KEA1 151838Z 36014KT 33/11 A2989 RMK A01 T03340114  RH  026%=      5-min Rain = 0
KEA1 151839Z 35012KT 33/11 A2989 RMK A01 T03310113  RH  026%=      5-min Rain = 0
KEA1 151840Z 35011KT 33/12 A2989 RMK A01 T03280116  RH  028%=      5-min Rain = 0
KEA1 151841Z 33013KT 33/10 A2989 RMK A01 T03320104  RH  025%=      5-min Rain = 0
KEA1 151842Z 33009KT 33/09 A2989 RMK A01 T03290094  RH  024%=      5-min Rain = 0
KEA1 151843Z 34011G16KT 33/10 A2989 RMK A01 T03260103  RH  026%=      5-min Rain = 0
KEA1 151844Z 34007KT 33/10 A2989 RMK A01 T03260104  RH  025%=      5-min Rain = 0
KEA1 151845Z 32012KT 33/11 A2989 RMK A01 T03270106  RH  026%=      5-min Rain = 0
KEA1 151846Z 32010G15KT 33/11 A2989 RMK A01 T03270106  RH  026%=      5-min Rain = 0
KEA1 151847Z 31009KT 33/11 A2989 RMK A01 T03280108  RH  026%=      5-min Rain = 0
KEA1 151848Z 34011G16KT 33/11 A2989 RMK A01 T03300111  RH  026%=      5-min Rain = 0
KEA1 151849Z 36013G18KT 33/11 A2989 RMK A01 T03330106  RH  025%=      5-min Rain = 0
KEA1 151850Z 00010KT 33/10 A2989 RMK A01 T03290104  RH  025%=      5-min Rain = 0
KEA1 151851Z 36010G16KT 33/11 A2989 RMK A01 T03290110  RH  026%=      5-min Rain = 0
KEA1 151852Z 36014KT 33/11 A2989 RMK A01 T03300105  RH  025%=      5-min Rain = 0
KEA1 151853Z 35015KT 33/11 A2989 RMK A01 T03330107  RH  025%=      5-min Rain = 0
KEA1 151854Z 32010KT 33/11 A2989 RMK A01 T03320106  RH  025%=      5-min Rain = 0
KEA1 151855Z 01008KT 33/11 A2989 RMK A01 T03280108  RH  026%=      5-min Rain = 0
KEA1 151856Z 01010KT 33/11 A2989 RMK A01 T03300109  RH  026%=      5-min Rain = 0
KEA1 151857Z 34008KT 33/11 A2989 RMK A01 T03320108  RH  025%=      5-min Rain = 0
KEA1 151858Z 35010KT 33/11 A2989 RMK A01 T03320110  RH  026%=      5-min Rain = 0
KEA1 151859Z 35012KT 34/11 A2989 RMK A01 T03350110  RH  025%=      5-min Rain = 0
KEA1 151900Z 34012KT 34/10 A2989 RMK A01 T03350103  RH  024%=      5-min Rain = 0
KEA1 151901Z 33008KT 33/11 A2989 RMK A01 T03330105  RH  025%=      5-min Rain = 0
KEA1 151902Z 33011KT 33/11 A2989 RMK A01 T03340108  RH  025%=      5-min Rain = 0
KEA1 151903Z 32011KT 34/10 A2989 RMK A01 T03360102  RH  024%=      5-min Rain = 0
KEA1 151904Z 30010KT 34/10 A2989 RMK A01 T03350101  RH  024%=      5-min Rain = 0
KEA1 151905Z 30009KT 33/11 A2989 RMK A01 T03330106  RH  025%=      5-min Rain = 0
KEA1 151906Z 32008KT 33/11 A2989 RMK A01 T03320111  RH  026%=      5-min Rain = 0
KEA1 151907Z 00009KT 34/12 A2989 RMK A01 T03370116  RH  026%=      5-min Rain = 0
KEA1 151908Z 32008KT 34/11 A2989 RMK A01 T03390112  RH  025%=      5-min Rain = 0
KEA1 151909Z 33011KT 34/11 A2989 RMK A01 T03370106  RH  024%=      5-min Rain = 0
KEA1 151910Z 32010KT 34/10 A2989 RMK A01 T03360097  RH  023%=      5-min Rain = 0
KEA1 151911Z 33011KT 34/10 A2989 RMK A01 T03350099  RH  024%=      5-min Rain = 0
KEA1 151912Z 32008KT 34/10 A2989 RMK A01 T03350098  RH  023%=      5-min Rain = 0
KEA1 151913Z 33006KT 33/10 A2989 RMK A01 T03330099  RH  024%=      5-min Rain = 0
KEA1 151914Z 33009KT 33/10 A2989 RMK A01 T03320103  RH  025%=      5-min Rain = 0
KEA1 151915Z 34010KT 34/11 A2989 RMK A01 T03360110  RH  025%=      5-min Rain = 0
KEA1 151916Z 36009KT 34/11 A2989 RMK A01 T03380111  RH  025%=      5-min Rain = 0
KEA1 151917Z 33009KT 34/11 A2989 RMK A01 T03400107  RH  024%=      5-min Rain = 0
KEA1 151918Z 34009KT 34/10 A2989 RMK A01 T03380104  RH  024%=      5-min Rain = 0
KEA1 151919Z 35007KT 33/10 A2988 RMK A01 T03340103  RH  024%=      5-min Rain = 0
KEA1 151920Z 31004KT 33/10 A2988 RMK A01 T03310102  RH  025%=      5-min Rain = 0
KEA1 151921Z 31005KT 33/10 A2988 RMK A01 T03300103  RH  025%=      5-min Rain = 0
KEA1 151922Z 35005KT 33/11 A2988 RMK A01 T03300105  RH  025%=      5-min Rain = 0
KEA1 151923Z 01008KT 33/11 A2988 RMK A01 T03330110  RH  026%=      5-min Rain = 0
KEA1 151924Z 01008KT 34/11 A2988 RMK A01 T03370112  RH  025%=      5-min Rain = 0
KEA1 151925Z 02006KT 34/11 A2988 RMK A01 T03410111  RH  025%=      5-min Rain = 0
KEA1 151926Z 02011KT 34/11 A2988 RMK A01 T03420107  RH  024%=      5-min Rain = 0
KEA1 151927Z 33010KT 34/12 A2988 RMK A01 T03410115  RH  025%=      5-min Rain = 0
KEA1 151928Z 34008KT 34/12 A2988 RMK A01 T03440116  RH  025%=      5-min Rain = 0
KEA1 151929Z 34009KT 35/12 A2988 RMK A01 T03470115  RH  025%=      5-min Rain = 0
KEA1 151930Z 33006KT 35/11 A2988 RMK A01 T03450109  RH  024%=      5-min Rain = 0
KEA1 151931Z 34004KT 34/11 A2988 RMK A01 T03400105  RH  024%=      5-min Rain = 0
KEA1 151932Z 35008KT 34/11 A2988 RMK A01 T03360107  RH  025%=      5-min Rain = 0
KEA1 151933Z 35010KT 34/11 A2988 RMK A01 T03370105  RH  024%=      5-min Rain = 0
KEA1 151934Z 35011KT 34/10 A2988 RMK A01 T03370103  RH  024%=      5-min Rain = 0
KEA1 151935Z 35010KT 34/10 A2988 RMK A01 T03390103  RH  024%=      5-min Rain = 0
KEA1 151936Z 34010KT 34/10 A2988 RMK A01 T03410103  RH  023%=      5-min Rain = 0
KEA1 151937Z 00011KT 34/10 A2988 RMK A01 T03400101  RH  023%=      5-min Rain = 0
KEA1 151938Z 00007KT 34/10 A2988 RMK A01 T03370098  RH  023%=      5-min Rain = 0
KEA1 151939Z 01007KT 34/10 A2988 RMK A01 T03350099  RH  024%=      5-min Rain = 0
KEA1 151940Z 35005KT 34/09 A2988 RMK A01 T03360093  RH  023%=      5-min Rain = 0
KEA1 151941Z 33010KT 34/10 A2988 RMK A01 T03350100  RH  024%=      5-min Rain = 0
KEA1 151942Z 32011KT 34/10 A2988 RMK A01 T03390101  RH  023%=      5-min Rain = 0
KEA1 151943Z 32006KT 34/10 A2988 RMK A01 T03410101  RH  023%=      5-min Rain = 0
KEA1 151944Z 31006KT 34/10 A2988 RMK A01 T03420101  RH  023%=      5-min Rain = 0
KEA1 151945Z 32004KT 34/10 A2988 RMK A01 T03390096  RH  022%=      5-min Rain = 0
KEA1 151946Z 30011KT 34/10 A2988 RMK A01 T03390097  RH  023%=      5-min Rain = 0
KEA1 151947Z 31011KT 34/10 A2988 RMK A01 T03400095  RH  022%=      5-min Rain = 0
KEA1 151948Z 33009KT 34/10 A2988 RMK A01 T03410096  RH  022%=      5-min Rain = 0
KEA1 151949Z 30011KT 34/10 A2988 RMK A01 T03420096  RH  022%=      5-min Rain = 0
KEA1 151950Z 29011KT 34/09 A2988 RMK A01 T03420092  RH  022%=      5-min Rain = 0
KEA1 151951Z 30009KT 34/09 A2988 RMK A01 T03400094  RH  022%=      5-min Rain = 0
KEA1 151952Z 29005KT 34/09 A2988 RMK A01 T03400090  RH  022%=      5-min Rain = 0
KEA1 151953Z 32006G11KT 34/09 A2988 RMK A01 T03380091  RH  022%=      5-min Rain = 0
KEA1 151954Z 32008KT 34/09 A2988 RMK A01 T03390093  RH  022%=      5-min Rain = 0
KEA1 151955Z 29009KT 34/09 A2988 RMK A01 T03410092  RH  022%=      5-min Rain = 0
KEA1 151956Z 29008KT 34/09 A2988 RMK A01 T03420092  RH  022%=      5-min Rain = 0
KEA1 151957Z 32006KT 34/09 A2988 RMK A01 T03420089  RH  021%=      5-min Rain = 0
KEA1 151958Z 35005KT 34/08 A2988 RMK A01 T03400083  RH  021%=      5-min Rain = 0
KEA1 151959Z 01001KT 34/08 A2988 RMK A01 T03360079  RH  020%=      5-min Rain = 0
KEA1 152000Z 28003KT 33/08 A2988 RMK A01 T03340082  RH  021%=      5-min Rain = 0
KEA1 152001Z 29006KT 34/09 A2988 RMK A01 T03350089  RH  022%=      5-min Rain = 0
KEA1 152002Z 29004KT 34/09 A2988 RMK A01 T03350087  RH  022%=      5-min Rain = 0
KEA1 152003Z 32007KT 34/09 A2988 RMK A01 T03360093  RH  022%=      5-min Rain = 0
KEA1 152004Z 35009KT 34/09 A2988 RMK A01 T03390090  RH  022%=      5-min Rain = 0
KEA1 152005Z 01005KT 34/09 A2988 RMK A01 T03370091  RH  022%=      5-min Rain = 0
KEA1 152006Z 36008KT 34/09 A2988 RMK A01 T03370093  RH  022%=      5-min Rain = 0
KEA1 152007Z 00009KT 34/09 A2988 RMK A01 T03400090  RH  022%=      5-min Rain = 0
KEA1 152008Z 02005KT 34/09 A2988 RMK A01 T03410087  RH  021%=      5-min Rain = 0
KEA1 152009Z 02005KT 34/09 A2988 RMK A01 T03390091  RH  022%=      5-min Rain = 0
KEA1 152010Z 01005KT 34/09 A2988 RMK A01 T03410091  RH  022%=      5-min Rain = 0
KEA1 152011Z 01006KT 34/09 A2988 RMK A01 T03430090  RH  021%=      5-min Rain = 0
KEA1 152012Z 02007KT 34/09 A2987 RMK A01 T03440088  RH  021%=      5-min Rain = 0
KEA1 152013Z 03008KT 35/09 A2987 RMK A01 T03450093  RH  021%=      5-min Rain = 0
KEA1 152014Z 04008KT 35/09 A2987 RMK A01 T03480090  RH  021%=      5-min Rain = 0
KEA1 152015Z 04007KT 34/09 A2987 RMK A01 T03440086  RH  021%=      5-min Rain = 0
KEA1 152016Z 05007KT 34/09 A2987 RMK A01 T03420091  RH  021%=      5-min Rain = 0
KEA1 152017Z 04005KT 34/09 A2987 RMK A01 T03420090  RH  021%=      5-min Rain = 0
KEA1 152018Z 04005KT 34/09 A2987 RMK A01 T03430091  RH  021%=      5-min Rain = 0
KEA1 152019Z 05006KT 34/09 A2987 RMK A01 T03430087  RH  021%=      5-min Rain = 0
KEA1 152020Z 03005KT 34/09 A2987 RMK A01 T03410087  RH  021%=      5-min Rain = 0
KEA1 152021Z 03004G9KT 34/09 A2986 RMK A01 T03410087  RH  021%=      5-min Rain = 0
KEA1 152022Z 04008KT 34/09 A2986 RMK A01 T03420093  RH  022%=      5-min Rain = 0
KEA1 152023Z 01004KT 34/09 A2986 RMK A01 T03430087  RH  021%=      5-min Rain = 0
KEA1 152024Z 36003KT 34/09 A2986 RMK A01 T03390086  RH  021%=      5-min Rain = 0
KEA1 152025Z 02003KT 34/09 A2986 RMK A01 T03360089  RH  022%=      5-min Rain = 0
KEA1 152026Z 00005KT 34/09 A2986 RMK A01 T03360091  RH  022%=      5-min Rain = 0
KEA1 152027Z 34006KT 34/09 A2986 RMK A01 T03350092  RH  022%=      5-min Rain = 0
KEA1 152028Z 34010G15KT 33/09 A2986 RMK A01 T03340094  RH  023%=      5-min Rain = 0
KEA1 152029Z 35012KT 33/10 A2986 RMK A01 T03310101  RH  024%=      5-min Rain = 0
KEA1 152030Z 02005KT 33/09 A2986 RMK A01 T03290088  RH  023%=      5-min Rain = 0
KEA1 152031Z 03009G15KT 33/09 A2985 RMK A01 T03280094  RH  024%=      5-min Rain = 0
KEA1 152032Z 00009KT 33/10 A2985 RMK A01 T03280098  RH  024%=      5-min Rain = 0
KEA1 152033Z 32004KT 33/10 A2986 RMK A01 T03270096  RH  024%=      5-min Rain = 0
KEA1 152034Z 23000KT 33/10 A2985 RMK A01 T03270095  RH  024%=      5-min Rain = 0
KEA1 152035Z 01001KT 33/09 A2985 RMK A01 T03270094  RH  024%=      5-min Rain = 0
KEA1 152036Z 08000KT 33/09 A2985 RMK A01 T03260092  RH  024%=      5-min Rain = 0
KEA1 152037Z 22003KT 33/09 A2985 RMK A01 T03250093  RH  024%=      5-min Rain = 0
KEA1 152038Z 19003KT 33/09 A2986 RMK A01 T03250094  RH  024%=      5-min Rain = 0
KEA1 152039Z 00005KT 33/10 A2986 RMK A01 T03250095  RH  024%=      5-min Rain = 0
KEA1 152040Z 33006KT 32/10 A2986 RMK A01 T03240095  RH  024%=      5-min Rain = 0
KEA1 152041Z 31008KT 32/10 A2986 RMK A01 T03220095  RH  025%=      5-min Rain = 0
KEA1 152042Z 30010KT 32/10 A2986 RMK A01 T03200099  RH  026%=      5-min Rain = 0
KEA1 152043Z 31006KT 32/10 A2986 RMK A01 T03180102  RH  026%=      5-min Rain = 0
KEA1 152044Z 31006KT 32/10 A2986 RMK A01 T03160104  RH  027%=      5-min Rain = 0
KEA1 152045Z 30007KT 32/11 A2986 RMK A01 T03150105  RH  028%=      5-min Rain = 0
KEA1 152046Z 28008KT 31/11 A2986 RMK A01 T03130113  RH  029%=      5-min Rain = 0
KEA1 152047Z 29008KT 31/12 A2986 RMK A01 T03100115  RH  030%=      5-min Rain = 0
KEA1 152048Z 30008KT 31/11 A2986 RMK A01 T03080106  RH  029%=      5-min Rain = 0
KEA1 152049Z 30008KT 31/10 A2986 RMK A01 T03070104  RH  028%=      5-min Rain = 0
KEA1 152050Z 31007KT 31/11 A2986 RMK A01 T03080113  RH  030%=      5-min Rain = 0
KEA1 152051Z 29007KT 31/12 A2986 RMK A01 T03060116  RH  031%=      5-min Rain = 0
KEA1 152052Z 25007KT 31/11 A2986 RMK A01 T03050111  RH  030%=      5-min Rain = 0
KEA1 152053Z 26009KT 31/09 A2986 RMK A01 T03060090  RH  026%=      5-min Rain = 0
KEA1 152054Z 28007KT 31/09 A2986 RMK A01 T03090093  RH  026%=      5-min Rain = 0
KEA1 152055Z 26006KT 31/09 A2986 RMK A01 T03100086  RH  025%=      5-min Rain = 0
KEA1 152056Z 27006KT 31/09 A2986 RMK A01 T03100087  RH  025%=      5-min Rain = 0
KEA1 152057Z 24005KT 31/09 A2986 RMK A01 T03100086  RH  025%=      5-min Rain = 0
KEA1 152058Z 29004KT 31/08 A2986 RMK A01 T03110081  RH  024%=      5-min Rain = 0
KEA1 152059Z 29004KT 31/09 A2986 RMK A01 T03110086  RH  025%=      5-min Rain = 0
KEA1 152100Z 29005KT 31/09 A2986 RMK A01 T03110085  RH  025%=      5-min Rain = 0
KEA1 152101Z 29005KT 31/09 A2986 RMK A01 T03110087  RH  025%=      5-min Rain = 0
KEA1 152102Z 28005KT 31/09 A2986 RMK A01 T03110089  RH  025%=      5-min Rain = 0
KEA1 152103Z 27009G14KT 31/09 A2987 RMK A01 T03100089  RH  025%=      5-min Rain = 0
KEA1 152104Z 27014KT 31/09 A2987 RMK A01 T03090089  RH  025%=      5-min Rain = 0
KEA1 152105Z 28019G25KT 31/10 A2987 RMK A01 T03070098  RH  027%=      5-min Rain = 0
KEA1 152106Z 28023G28KT 30/10 A2987 RMK A01 T02960101  RH  030%=      5-min Rain = 0
KEA1 152107Z 29020KT 29/10 A2987 RMK A01 T02860103  RH  032%=      5-min Rain = 0
KEA1 152108Z 30021KT 28/10 A2987 RMK A01 T02830099  RH  032%=      5-min Rain = 0
KEA1 152109Z 31020KT 28/09 A2987 RMK A01 T02830093  RH  031%=      5-min Rain = 0
KEA1 152110Z 32018KT 28/09 A2987 RMK A01 T02840089  RH  029%=      5-min Rain = 0
KEA1 152111Z 31015KT 29/09 A2987 RMK A01 T02850093  RH  030%=      5-min Rain = 0
KEA1 152112Z 31015KT 28/10 A2988 RMK A01 T02830096  RH  031%=      5-min Rain = 0
KEA1 152113Z 31016KT 28/10 A2987 RMK A01 T02800097  RH  032%=      5-min Rain = 0
KEA1 152114Z 33016KT 28/10 A2987 RMK A01 T02780099  RH  033%=      5-min Rain = 0
KEA1 152115Z 33015KT 28/10 A2987 RMK A01 T02760102  RH  034%=      5-min Rain = 0
KEA1 152116Z 33013KT 27/11 A2987 RMK A01 T02730105  RH  035%=      5-min Rain = 0
KEA1 152117Z 33013KT 27/11 A2987 RMK A01 T02700109  RH  037%=      5-min Rain = 0
KEA1 152118Z 34016KT 27/11 A2987 RMK A01 T02670109  RH  037%=      5-min Rain = 0
KEA1 152119Z 35018KT 26/12 A2987 RMK A01 T02640117  RH  040%=      5-min Rain = 0
KEA1 152120Z 35016KT 26/12 A2987 RMK A01 T02570120  RH  043%=      5-min Rain = 0
KEA1 152121Z 36016KT 25/12 A2987 RMK A01 T02520115  RH  043%=      5-min Rain = 0
KEA1 152122Z 36016KT 25/10 A2987 RMK A01 T02530103  RH  039%=      5-min Rain = 0
KEA1 152123Z 35018KT 26/10 A2987 RMK A01 T02600095  RH  035%=      5-min Rain = 0
KEA1 152124Z 34015KT 26/11 A2987 RMK A01 T02640112  RH  039%=      5-min Rain = 0
KEA1 152125Z 00014KT 25/13 A2987 RMK A01 T02540127  RH  045%=      5-min Rain = 0
KEA1 152126Z 36015KT 24/13 A2987 RMK A01 T02420126  RH  048%=      5-min Rain = 0
KEA1 152127Z 36015KT 24/13 A2987 RMK A01 T02380129  RH  050%=      5-min Rain = 0
KEA1 152128Z 36014KT 24/13 A2987 RMK A01 T02360130  RH  051%=      5-min Rain = 0
KEA1 152129Z 00015KT 23/13 A2987 RMK A01 T02340133  RH  053%=      5-min Rain = 0
KEA1 152130Z 01015KT 23/13 A2987 RMK A01 T02320133  RH  054%=      5-min Rain = 0
KEA1 152131Z 01016KT 23/13 A2987 RMK A01 T02310132  RH  053%=      5-min Rain = 0
KEA1 152132Z 02014KT 23/14 A2986 RMK A01 T02280136  RH  056%=      5-min Rain = 0
KEA1 152133Z 02016KT 22/14 A2986 RMK A01 T02220139  RH  059%=      5-min Rain = 0
KEA1 152134Z 02016KT 22/14 A2986 RMK A01 T02200139  RH  060%=      5-min Rain = 0
KEA1 152135Z 01016KT 22/14 A2986 RMK A01 T02190139  RH  060%=      5-min Rain = 0
KEA1 152136Z 01017KT 22/14 A2986 RMK A01 T02190139  RH  060%=      5-min Rain = 0
KEA1 152137Z 02015KT 22/14 A2986 RMK A01 T02210138  RH  059%=      5-min Rain = 0
KEA1 152138Z 02013KT 22/14 A2985 RMK A01 T02230138  RH  059%=      5-min Rain = 0
KEA1 152139Z 01012KT 22/14 A2985 RMK A01 T02240139  RH  058%=      5-min Rain = 0
KEA1 152140Z 01012KT 23/14 A2985 RMK A01 T02260136  RH  057%=      5-min Rain = 0
KEA1 152141Z 01012KT 23/13 A2985 RMK A01 T02300134  RH  055%=      5-min Rain = 0
KEA1 152142Z 00012KT 23/13 A2985 RMK A01 T02330134  RH  054%=      5-min Rain = 0
KEA1 152143Z 01011KT 23/13 A2985 RMK A01 T02340134  RH  053%=      5-min Rain = 0
KEA1 152144Z 00011KT 24/13 A2985 RMK A01 T02350134  RH  053%=      5-min Rain = 0
KEA1 152145Z 01010KT 24/13 A2985 RMK A01 T02350133  RH  053%=      5-min Rain = 0
KEA1 152146Z 01011KT 24/13 A2985 RMK A01 T02350132  RH  052%=      5-min Rain = 0
KEA1 152147Z 01011KT 24/13 A2984 RMK A01 T02360132  RH  052%=      5-min Rain = 0
KEA1 152148Z 01010KT 24/13 A2984 RMK A01 T02360133  RH  053%=      5-min Rain = 0
KEA1 152149Z 02010KT 24/14 A2984 RMK A01 T02360136  RH  053%=      5-min Rain = 0
KEA1 152150Z 01011KT 24/14 A2984 RMK A01 T02350137  RH  054%=      5-min Rain = 0
KEA1 152151Z 02011KT 23/14 A2984 RMK A01 T02340136  RH  054%=      5-min Rain = 0
KEA1 152152Z 02010KT 23/14 A2984 RMK A01 T02340140  RH  055%=      5-min Rain = 0
KEA1 152153Z 03011KT 23/14 A2984 RMK A01 T02320139  RH  056%=      5-min Rain = 0
KEA1 152154Z 02011KT 23/14 A2985 RMK A01 T02320140  RH  056%=      5-min Rain = 0
KEA1 152155Z 03012KT 23/14 A2985 RMK A01 T02320140  RH  056%=      5-min Rain = 0
KEA1 152156Z 03013KT 23/14 A2985 RMK A01 T02320135  RH  055%=      5-min Rain = 0
KEA1 152157Z 03012KT 23/14 A2985 RMK A01 T02320136  RH  055%=      5-min Rain = 0
KEA1 152158Z 03014KT 23/14 A2984 RMK A01 T02320136  RH  055%=      5-min Rain = 0
KEA1 152159Z 03014KT 23/14 A2984 RMK A01 T02320136  RH  055%=      5-min Rain = 0
KEA1 152200Z 03013KT 23/14 A2985 RMK A01 T02310136  RH  055%=      5-min Rain = 0
KEA1 152201Z 03012KT 23/14 A2985 RMK A01 T02310136  RH  055%=      5-min Rain = 0
KEA1 152202Z 03012KT 23/14 A2985 RMK A01 T02310136  RH  055%=      5-min Rain = 0
KEA1 152203Z 04012KT 23/14 A2984 RMK A01 T02310136  RH  055%=      5-min Rain = 0
KEA1 152204Z 04012KT 23/14 A2984 RMK A01 T02320137  RH  055%=      5-min Rain = 0
KEA1 152205Z 04011KT 23/14 A2984 RMK A01 T02320138  RH  055%=      5-min Rain = 0
KEA1 152206Z 04012KT 23/14 A2984 RMK A01 T02320139  RH  056%=      5-min Rain = 0
KEA1 152207Z 04011KT 23/14 A2984 RMK A01 T02320138  RH  056%=      5-min Rain = 0
KEA1 152208Z 05011KT 23/14 A2984 RMK A01 T02330139  RH  056%=      5-min Rain = 0
KEA1 152209Z 05012KT 23/14 A2984 RMK A01 T02330138  RH  055%=      5-min Rain = 0
KEA1 152210Z 05012KT 23/14 A2984 RMK A01 T02340139  RH  055%=      5-min Rain = 0
KEA1 152211Z 06011KT 23/14 A2984 RMK A01 T02340140  RH  055%=      5-min Rain = 0
KEA1 152212Z 06013KT 23/14 A2984 RMK A01 T02340139  RH  055%=      5-min Rain = 0
KEA1 152213Z 05016KT 23/14 A2985 RMK A01 T02340139  RH  055%=      5-min Rain = 0
KEA1 152214Z 05014KT 23/14 A2985 RMK A01 T02330139  RH  056%=      5-min Rain = 0
KEA1 152215Z 05014KT 23/14 A2985 RMK A01 T02320139  RH  056%=      5-min Rain = 0
KEA1 152216Z 05013KT 23/14 A2985 RMK A01 T02320139  RH  056%=      5-min Rain = 0
KEA1 152217Z 05014KT 23/14 A2985 RMK A01 T02320138  RH  055%=      5-min Rain = 0
KEA1 152218Z 05014KT 23/14 A2985 RMK A01 T02330138  RH  055%=      5-min Rain = 0
KEA1 152219Z 05014KT 23/14 A2985 RMK A01 T02340138  RH  055%=      5-min Rain = 0
KEA1 152220Z 05015KT 24/14 A2985 RMK A01 T02350136  RH  054%=      5-min Rain = 0
KEA1 152221Z 05016KT 24/14 A2985 RMK A01 T02360135  RH  053%=      5-min Rain = 0
KEA1 152222Z 05016KT 24/14 A2985 RMK A01 T02380137  RH  053%=      5-min Rain = 0
KEA1 152223Z 05016G21KT 24/14 A2985 RMK A01 T02400138  RH  053%=      5-min Rain = 0
KEA1 152224Z 05014KT 24/14 A2985 RMK A01 T02410139  RH  053%=      5-min Rain = 0
KEA1 152225Z 05015KT 24/14 A2985 RMK A01 T02420140  RH  053%=      5-min Rain = 0
KEA1 152226Z 05015G20KT 24/14 A2985 RMK A01 T02430140  RH  053%=      5-min Rain = 0
KEA1 152227Z 05018KT 24/14 A2985 RMK A01 T02430140  RH  052%=      5-min Rain = 0
KEA1 152228Z 05016KT 24/14 A2985 RMK A01 T02440139  RH  052%=      5-min Rain = 0
KEA1 152229Z 05016G22KT 24/14 A2985 RMK A01 T02440135  RH  050%=      5-min Rain = 0
KEA1 152230Z 05017KT 24/13 A2985 RMK A01 T02440128  RH  048%=      5-min Rain = 0
KEA1 152231Z 05016KT 25/12 A2985 RMK A01 T02450124  RH  047%=      5-min Rain = 0
KEA1 152232Z 05016KT 25/12 A2985 RMK A01 T02450124  RH  047%=      5-min Rain = 0
KEA1 152233Z 05016KT 25/12 A2985 RMK A01 T02450124  RH  047%=      5-min Rain = 0
KEA1 152234Z 05015KT 24/12 A2985 RMK A01 T02440124  RH  047%=      5-min Rain = 0
KEA1 152235Z 05015KT 24/12 A2985 RMK A01 T02440123  RH  047%=      5-min Rain = 0
KEA1 152236Z 05014KT 24/12 A2985 RMK A01 T02440124  RH  047%=      5-min Rain = 0
KEA1 152237Z 06014KT 24/12 A2985 RMK A01 T02440122  RH  047%=      5-min Rain = 0
KEA1 152238Z 06014KT 24/12 A2985 RMK A01 T02440121  RH  046%=      5-min Rain = 0
KEA1 152239Z 05015KT 24/12 A2985 RMK A01 T02440121  RH  046%=      5-min Rain = 0
KEA1 152240Z 06014KT 24/12 A2985 RMK A01 T02440118  RH  045%=      5-min Rain = 0
KEA1 152241Z 06016KT 25/11 A2985 RMK A01 T02460113  RH  043%=      5-min Rain = 0
KEA1 152242Z 05016G22KT 25/11 A2985 RMK A01 T02470109  RH  042%=      5-min Rain = 0
KEA1 152243Z 06017KT 25/11 A2985 RMK A01 T02470105  RH  041%=      5-min Rain = 0
KEA1 152244Z 05015G21KT 25/11 A2985 RMK A01 T02480106  RH  041%=      5-min Rain = 0
KEA1 152245Z 05017KT 25/11 A2985 RMK A01 T02470106  RH  041%=      5-min Rain = 0
KEA1 152246Z 04018G24KT 25/11 A2985 RMK A01 T02470110  RH  042%=      5-min Rain = 0
KEA1 152247Z 04019KT 25/11 A2986 RMK A01 T02460113  RH  043%=      5-min Rain = 0
KEA1 152248Z 04016KT 24/11 A2986 RMK A01 T02440113  RH  044%=      5-min Rain = 0
KEA1 152249Z 03015KT 24/11 A2986 RMK A01 T02420113  RH  044%=      5-min Rain = 0
KEA1 152250Z 03015KT 24/11 A2985 RMK A01 T02410113  RH  044%=      5-min Rain = 0
KEA1 152251Z 04017G22KT 24/12 A2985 RMK A01 T02400115  RH  045%=      5-min Rain = 0
KEA1 152252Z 04015KT 24/12 A2985 RMK A01 T02390118  RH  046%=      5-min Rain = 0
KEA1 152253Z 04013KT 24/12 A2985 RMK A01 T02370121  RH  048%=      5-min Rain = 0
KEA1 152254Z 04013KT 24/12 A2985 RMK A01 T02360124  RH  049%=      5-min Rain = 0
KEA1 152255Z 04014KT 24/13 A2985 RMK A01 T02350128  RH  051%=      5-min Rain = 0
KEA1 152256Z 04017KT 23/13 A2985 RMK A01 T02340130  RH  052%=      5-min Rain = 0
KEA1 152257Z 04014KT 23/13 A2985 RMK A01 T02330133  RH  053%=      5-min Rain = 0
KEA1 152258Z 04014KT 23/14 A2985 RMK A01 T02330135  RH  054%=      5-min Rain = 0
KEA1 152259Z 04015KT 23/14 A2985 RMK A01 T02330136  RH  055%=      5-min Rain = 0
KEA1 152300Z 04012KT 23/14 A2984 RMK A01 T02330137  RH  055%=      5-min Rain = 0
KEA1 152301Z 04014KT 23/14 A2984 RMK A01 T02330138  RH  055%=      5-min Rain = 0
KEA1 152302Z 05015KT 23/14 A2984 RMK A01 T02330138  RH  055%=      5-min Rain = 0
KEA1 152303Z 05015KT 23/14 A2984 RMK A01 T02340139  RH  055%=      5-min Rain = 0
KEA1 152304Z 04014G19KT 23/14 A2984 RMK A01 T02340140  RH  055%=      5-min Rain = 0
KEA1 152305Z 05014KT 24/14 A2984 RMK A01 T02350140  RH  055%=      5-min Rain = 0
KEA1 152306Z 05015KT 24/14 A2984 RMK A01 T02360141  RH  055%=      5-min Rain = 0
KEA1 152307Z 05016KT 24/14 A2984 RMK A01 T02370141  RH  055%=      5-min Rain = 0
KEA1 152308Z 05014G19KT 24/14 A2984 RMK A01 T02380142  RH  055%=      5-min Rain = 0
KEA1 152309Z 04015KT 24/14 A2984 RMK A01 T02380143  RH  055%=      5-min Rain = 0
KEA1 152310Z 04014G20KT 24/14 A2984 RMK A01 T02380143  RH  055%=      5-min Rain = 0
KEA1 152311Z 03015KT 24/14 A2984 RMK A01 T02380144  RH  056%=      5-min Rain = 0
KEA1 152312Z 04014KT 24/15 A2984 RMK A01 T02380146  RH  056%=      5-min Rain = 0
KEA1 152313Z 04015KT 24/15 A2984 RMK A01 T02380146  RH  056%=      5-min Rain = 0
KEA1 152314Z 04016KT 24/15 A2984 RMK A01 T02380147  RH  057%=      5-min Rain = 0
KEA1 152315Z 04016KT 24/15 A2984 RMK A01 T02380148  RH  057%=      5-min Rain = 0
KEA1 152316Z 04014KT 24/15 A2984 RMK A01 T02380147  RH  057%=      5-min Rain = 0
KEA1 152317Z 04014KT 24/15 A2984 RMK A01 T02390148  RH  057%=      5-min Rain = 0
KEA1 152318Z 03014KT 24/15 A2984 RMK A01 T02390148  RH  057%=      5-min Rain = 0
KEA1 152319Z 03016KT 24/15 A2984 RMK A01 T02380148  RH  057%=      5-min Rain = 0
KEA1 152320Z 03015KT 24/15 A2984 RMK A01 T02390149  RH  057%=      5-min Rain = 0
KEA1 152321Z 03014KT 24/15 A2984 RMK A01 T02380150  RH  058%=      5-min Rain = 0
KEA1 152322Z 03013KT 24/15 A2984 RMK A01 T02380150  RH  058%=      5-min Rain = 0
KEA1 152323Z 03012KT 24/15 A2984 RMK A01 T02380151  RH  058%=      5-min Rain = 0
KEA1 152324Z 03012KT 24/15 A2984 RMK A01 T02380150  RH  058%=      5-min Rain = 0
KEA1 152325Z 04013KT 24/15 A2984 RMK A01 T02380149  RH  058%=      5-min Rain = 0
KEA1 152326Z 03011KT 24/15 A2984 RMK A01 T02380149  RH  057%=      5-min Rain = 0
KEA1 152327Z 03012KT 24/15 A2984 RMK A01 T02380148  RH  057%=      5-min Rain = 0
KEA1 152328Z 04012KT 24/15 A2984 RMK A01 T02380147  RH  057%=      5-min Rain = 0
KEA1 152329Z 05010KT 24/15 A2984 RMK A01 T02380147  RH  057%=      5-min Rain = 0
KEA1 152330Z 05009KT 24/15 A2984 RMK A01 T02380149  RH  057%=      5-min Rain = 0
KEA1 152331Z 05009KT 24/15 A2984 RMK A01 T02380149  RH  057%=      5-min Rain = 0
KEA1 152332Z 05008KT 24/15 A2984 RMK A01 T02380149  RH  057%=      5-min Rain = 0
KEA1 152333Z 05009KT 24/15 A2983 RMK A01 T02390148  RH  057%=      5-min Rain = 0
KEA1 152334Z 05010KT 24/15 A2983 RMK A01 T02380146  RH  056%=      5-min Rain = 0
KEA1 152335Z 05010KT 24/15 A2983 RMK A01 T02390145  RH  056%=      5-min Rain = 0
KEA1 152336Z 05010KT 24/15 A2983 RMK A01 T02390145  RH  056%=      5-min Rain = 0
KEA1 152337Z 05011KT 24/15 A2983 RMK A01 T02390145  RH  055%=      5-min Rain = 0
KEA1 152338Z 05010KT 24/14 A2983 RMK A01 T02400142  RH  054%=      5-min Rain = 0
KEA1 152339Z 05008KT 24/14 A2983 RMK A01 T02400143  RH  054%=      5-min Rain = 0
KEA1 152340Z 04009KT 24/14 A2983 RMK A01 T02410141  RH  053%=      5-min Rain = 0
KEA1 152341Z 05010KT 24/14 A2983 RMK A01 T02420138  RH  052%=      5-min Rain = 0
KEA1 152342Z 04008KT 24/14 A2983 RMK A01 T02430136  RH  051%=      5-min Rain = 0
KEA1 152343Z 04010KT 24/14 A2983 RMK A01 T02440135  RH  051%=      5-min Rain = 0
KEA1 152344Z 05010KT 25/13 A2983 RMK A01 T02450129  RH  048%=      5-min Rain = 0
KEA1 152345Z 05010KT 25/13 A2983 RMK A01 T02460127  RH  048%=      5-min Rain = 0
KEA1 152346Z 05012KT 25/13 A2983 RMK A01 T02470126  RH  047%=      5-min Rain = 0
KEA1 152347Z 04010KT 25/12 A2983 RMK A01 T02470124  RH  046%=      5-min Rain = 0
KEA1 152348Z 05010KT 25/12 A2983 RMK A01 T02480123  RH  046%=      5-min Rain = 0
KEA1 152349Z 05010KT 25/12 A2983 RMK A01 T02490123  RH  045%=      5-min Rain = 0
KEA1 152350Z 04009KT 25/12 A2983 RMK A01 T02490121  RH  045%=      5-min Rain = 0
KEA1 152351Z 05010KT 25/12 A2983 RMK A01 T02490121  RH  045%=      5-min Rain = 0
KEA1 152352Z 05011KT 25/12 A2984 RMK A01 T02500118  RH  044%=      5-min Rain = 0
KEA1 152353Z 06012KT 25/12 A2984 RMK A01 T02500115  RH  043%=      5-min Rain = 0
KEA1 152354Z 06011KT 25/11 A2984 RMK A01 T02500113  RH  042%=      5-min Rain = 0
KEA1 152355Z 06011KT 25/11 A2984 RMK A01 T02520108  RH  040%=      5-min Rain = 0
KEA1 152356Z 06012KT 25/11 A2984 RMK A01 T02530108  RH  040%=      5-min Rain = 0
KEA1 152357Z 06011KT 25/11 A2984 RMK A01 T02530107  RH  040%=      5-min Rain = 0
KEA1 152358Z 06010KT 25/11 A2984 RMK A01 T02540107  RH  040%=      5-min Rain = 0
KEA1 152359Z 06010KT 25/11 A2984 RMK A01 T02540106  RH  040%=      5-min Rain = 0
KEA1 160000Z 05011KT 25/11 A2985 RMK A01 T02540105  RH  039%=      5-min Rain = 0
KEA1 160001Z 04011KT 25/10 A2985 RMK A01 T02540104  RH  039%=      5-min Rain = 0
KEA1 160002Z 02011KT 25/11 A2985 RMK A01 T02540105  RH  039%=      5-min Rain = 0
KEA1 160003Z 03010KT 25/11 A2985 RMK A01 T02530107  RH  040%=      5-min Rain = 0
KEA1 160004Z 02010KT 25/11 A2985 RMK A01 T02530107  RH  040%=      5-min Rain = 0
KEA1 160005Z 02009KT 25/11 A2985 RMK A01 T02520109  RH  041%=      5-min Rain = 0
KEA1 160006Z 02010KT 25/11 A2985 RMK A01 T02510107  RH  040%=      5-min Rain = 0
KEA1 160007Z 02010KT 25/11 A2985 RMK A01 T02510106  RH  040%=      5-min Rain = 0
KEA1 160008Z 02010KT 25/11 A2985 RMK A01 T02510105  RH  040%=      5-min Rain = 0
KEA1 160009Z 01010KT 25/11 A2985 RMK A01 T02510105  RH  040%=      5-min Rain = 0
KEA1 160010Z 36008KT 25/11 A2986 RMK A01 T02510106  RH  040%=      5-min Rain = 0
KEA1 160011Z 01008KT 25/11 A2986 RMK A01 T02490108  RH  041%=      5-min Rain = 0
KEA1 160012Z 02010KT 25/11 A2986 RMK A01 T02480107  RH  041%=      5-min Rain = 0
KEA1 160013Z 02011KT 25/11 A2986 RMK A01 T02470107  RH  041%=      5-min Rain = 0
KEA1 160014Z 02013KT 25/11 A2986 RMK A01 T02460107  RH  041%=      5-min Rain = 0
KEA1 160015Z 02014KT 25/10 A2986 RMK A01 T02450103  RH  041%=      5-min Rain = 0
KEA1 160016Z 02014KT 25/10 A2986 RMK A01 T02460101  RH  040%=      5-min Rain = 0
KEA1 160017Z 02013KT 25/10 A2986 RMK A01 T02460102  RH  040%=      5-min Rain = 0
KEA1 160018Z 02014KT 25/11 A2986 RMK A01 T02460105  RH  041%=      5-min Rain = 0
KEA1 160019Z 02013KT 25/11 A2986 RMK A01 T02450107  RH  042%=      5-min Rain = 0
KEA1 160020Z 04013KT 24/11 A2986 RMK A01 T02440109  RH  043%=      5-min Rain = 0
KEA1 160021Z 04012KT 24/11 A2986 RMK A01 T02430110  RH  043%=      5-min Rain = 0
KEA1 160022Z 05011KT 24/11 A2986 RMK A01 T02420111  RH  044%=      5-min Rain = 0
KEA1 160023Z 05013KT 24/11 A2986 RMK A01 T02410111  RH  044%=      5-min Rain = 0
KEA1 160024Z 05013KT 24/11 A2986 RMK A01 T02410111  RH  044%=      5-min Rain = 0
KEA1 160025Z 05012KT 24/11 A2986 RMK A01 T02410112  RH  044%=      5-min Rain = 0
KEA1 160026Z 04011KT 24/11 A2986 RMK A01 T02410113  RH  045%=      5-min Rain = 0
KEA1 160027Z 04013KT 24/11 A2986 RMK A01 T02400114  RH  045%=      5-min Rain = 0
KEA1 160028Z 04012KT 24/12 A2986 RMK A01 T02390115  RH  046%=      5-min Rain = 0
KEA1 160029Z 04011KT 24/12 A2986 RMK A01 T02390116  RH  046%=      5-min Rain = 0
KEA1 160030Z 05011KT 24/12 A2987 RMK A01 T02380116  RH  046%=      5-min Rain = 0
KEA1 160031Z 05011KT 24/12 A2987 RMK A01 T02380115  RH  046%=      5-min Rain = 0
KEA1 160032Z 04012KT 24/11 A2987 RMK A01 T02390114  RH  046%=      5-min Rain = 0
KEA1 160033Z 04013KT 24/11 A2987 RMK A01 T02390113  RH  045%=      5-min Rain = 0
KEA1 160034Z 04012KT 24/11 A2987 RMK A01 T02400113  RH  045%=      5-min Rain = 0
KEA1 160035Z 05011KT 24/11 A2987 RMK A01 T02410113  RH  045%=      5-min Rain = 0
KEA1 160036Z 06010KT 24/11 A2987 RMK A01 T02420113  RH  044%=      5-min Rain = 0
KEA1 160037Z 05012KT 24/11 A2987 RMK A01 T02430112  RH  044%=      5-min Rain = 0
KEA1 160038Z 06011KT 24/11 A2987 RMK A01 T02440113  RH  044%=      5-min Rain = 0
KEA1 160039Z 07010KT 25/11 A2987 RMK A01 T02460114  RH  043%=      5-min Rain = 0
KEA1 160040Z 08008KT 25/11 A2987 RMK A01 T02470114  RH  043%=      5-min Rain = 0
KEA1 160041Z 08009KT 25/11 A2987 RMK A01 T02480114  RH  043%=      5-min Rain = 0
KEA1 160042Z 07012KT 25/11 A2987 RMK A01 T02490113  RH  042%=      5-min Rain = 0
KEA1 160043Z 06013KT 25/11 A2987 RMK A01 T02500110  RH  042%=      5-min Rain = 0
KEA1 160044Z 07011KT 25/11 A2987 RMK A01 T02500110  RH  041%=      5-min Rain = 0
KEA1 160045Z 07014KT 25/11 A2987 RMK A01 T02500110  RH  041%=      5-min Rain = 0
KEA1 160046Z 07014KT 25/11 A2987 RMK A01 T02510106  RH  040%=      5-min Rain = 0
KEA1 160047Z 07019KT 25/10 A2987 RMK A01 T02520100  RH  038%=      5-min Rain = 0
KEA1 160048Z 07018KT 25/09 A2987 RMK A01 T02540094  RH  036%=      5-min Rain = 0
KEA1 160049Z 07019KT 26/09 A2987 RMK A01 T02550093  RH  036%=      5-min Rain = 0
KEA1 160050Z 07020G26KT 26/09 A2987 RMK A01 T02560093  RH  036%=      5-min Rain = 0
KEA1 160051Z 07019KT 26/09 A2987 RMK A01 T02560092  RH  036%=      5-min Rain = 0
KEA1 160052Z 06018G23KT 26/09 A2987 RMK A01 T02560092  RH  036%=      5-min Rain = 0
KEA1 160053Z 07019KT 26/09 A2987 RMK A01 T02550092  RH  036%=      5-min Rain = 0
KEA1 160054Z 07019KT 26/09 A2987 RMK A01 T02550092  RH  036%=      5-min Rain = 0
KEA1 160055Z 07017KT 26/09 A2988 RMK A01 T02550093  RH  036%=      5-min Rain = 0
KEA1 160056Z 07016KT 25/10 A2988 RMK A01 T02540097  RH  037%=      5-min Rain = 0
KEA1 160057Z 08014KT 25/10 A2988 RMK A01 T02530101  RH  038%=      5-min Rain = 0
KEA1 160058Z 08013KT 25/10 A2988 RMK A01 T02510104  RH  039%=      5-min Rain = 0
KEA1 160059Z 08016KT 25/10 A2988 RMK A01 T02500104  RH  040%=      5-min Rain = 0
KEA1 160100Z 08017G23KT 25/10 A2988 RMK A01 T02500104  RH  040%=      5-min Rain = 0
KEA1 160101Z 07019G25KT 25/10 A2989 RMK A01 T02490098  RH  038%=      5-min Rain = 0
KEA1 160102Z 07023G28KT 25/09 A2988 RMK A01 T02490091  RH  037%=      5-min Rain = 0
KEA1 160103Z 07023KT 25/09 A2988 RMK A01 T02470089  RH  037%=      5-min Rain = 0
KEA1 160104Z 07024KT 25/09 A2988 RMK A01 T02450088  RH  037%=      5-min Rain = 0
KEA1 160105Z 06024KT 24/09 A2988 RMK A01 T02440087  RH  037%=      5-min Rain = 0
KEA1 160106Z 07026G31KT 24/09 A2988 RMK A01 T02430085  RH  037%=      5-min Rain = 0
KEA1 160107Z 07026KT 24/08 A2988 RMK A01 T02420083  RH  036%=      5-min Rain = 0
KEA1 160108Z 06021KT 24/08 A2988 RMK A01 T02420084  RH  037%=      5-min Rain = 0
KEA1 160109Z 06022G27KT 24/09 A2988 RMK A01 T02410085  RH  037%=      5-min Rain = 0
KEA1 160110Z 07025G31KT 24/08 A2988 RMK A01 T02400082  RH  036%=      5-min Rain = 0
KEA1 160111Z 07021KT 24/08 A2988 RMK A01 T02400081  RH  036%=      5-min Rain = 0
KEA1 160112Z 07021KT 24/08 A2988 RMK A01 T02390082  RH  037%=      5-min Rain = 0
KEA1 160113Z 07020G26KT 24/08 A2988 RMK A01 T02380083  RH  037%=      5-min Rain = 0
KEA1 160114Z 07023G28KT 24/08 A2988 RMK A01 T02380082  RH  037%=      5-min Rain = 0
KEA1 160115Z 07022G27KT 24/08 A2988 RMK A01 T02370081  RH  037%=      5-min Rain = 0
KEA1 160116Z 07023G28KT 24/08 A2988 RMK A01 T02370079  RH  036%=      5-min Rain = 0
KEA1 160117Z 07022G27KT 24/08 A2988 RMK A01 T02370079  RH  036%=      5-min Rain = 0
KEA1 160118Z 07020KT 24/08 A2987 RMK A01 T02370079  RH  036%=      5-min Rain = 0
KEA1 160119Z 07022G27KT 24/08 A2987 RMK A01 T02370077  RH  036%=      5-min Rain = 0
KEA1 160120Z 07022KT 24/08 A2987 RMK A01 T02380076  RH  036%=      5-min Rain = 0
KEA1 160121Z 07022G27KT 24/08 A2987 RMK A01 T02370076  RH  035%=      5-min Rain = 0
KEA1 160122Z 07022G28KT 24/07 A2987 RMK A01 T02380074  RH  035%=      5-min Rain = 0
KEA1 160123Z 08021G27KT 24/08 A2987 RMK A01 T02380075  RH  035%=      5-min Rain = 0
KEA1 160124Z 08020KT 24/07 A2988 RMK A01 T02380074  RH  035%=      5-min Rain = 0
KEA1 160125Z 08019G26KT 24/08 A2988 RMK A01 T02380076  RH  035%=      5-min Rain = 0
KEA1 160126Z 08019G24KT 24/08 A2988 RMK A01 T02370076  RH  035%=      5-min Rain = 0
KEA1 160127Z 08020G25KT 24/08 A2988 RMK A01 T02370077  RH  036%=      5-min Rain = 0
KEA1 160128Z 08017G23KT 24/08 A2987 RMK A01 T02360077  RH  036%=      5-min Rain = 0
KEA1 160129Z 08016KT 24/08 A2987 RMK A01 T02350078  RH  037%=      5-min Rain = 0
KEA1 160130Z 08017KT 23/08 A2987 RMK A01 T02340079  RH  037%=      5-min Rain = 0
KEA1 160131Z 07020KT 23/08 A2987 RMK A01 T02330080  RH  037%=      5-min Rain = 0
KEA1 160132Z 08020KT 23/08 A2987 RMK A01 T02320081  RH  038%=      5-min Rain = 0
KEA1 160133Z 08016G22KT 23/08 A2987 RMK A01 T02320083  RH  038%=      5-min Rain = 0
KEA1 160134Z 07019KT 23/08 A2987 RMK A01 T02300084  RH  039%=      5-min Rain = 0
KEA1 160135Z 07018KT 23/09 A2987 RMK A01 T02280085  RH  040%=      5-min Rain = 0
KEA1 160136Z 07018G23KT 23/09 A2987 RMK A01 T02270085  RH  040%=      5-min Rain = 0
KEA1 160137Z 07018G23KT 23/09 A2987 RMK A01 T02260086  RH  041%=      5-min Rain = 0
KEA1 160138Z 07016KT 23/09 A2988 RMK A01 T02260086  RH  041%=      5-min Rain = 0
KEA1 160139Z 07018KT 23/09 A2987 RMK A01 T02250086  RH  041%=      5-min Rain = 0
KEA1 160140Z 07015G20KT 22/09 A2987 RMK A01 T02240086  RH  041%=      5-min Rain = 0
KEA1 160141Z 07018G24KT 22/09 A2987 RMK A01 T02230086  RH  041%=      5-min Rain = 0
KEA1 160142Z 07018KT 22/08 A2987 RMK A01 T02230084  RH  041%=      5-min Rain = 0
KEA1 160143Z 08020G28KT 22/08 A2987 RMK A01 T02230084  RH  041%=      5-min Rain = 0
KEA1 160144Z 08019KT 22/08 A2987 RMK A01 T02230083  RH  041%=      5-min Rain = 0
KEA1 160145Z 08017G22KT 22/08 A2987 RMK A01 T02230084  RH  041%=      5-min Rain = 0
KEA1 160146Z 08017G22KT 22/09 A2987 RMK A01 T02230085  RH  041%=      5-min Rain = 0
KEA1 160147Z 08015G23KT 22/08 A2987 RMK A01 T02210084  RH  041%=      5-min Rain = 0
KEA1 160148Z 08015G20KT 22/09 A2987 RMK A01 T02210085  RH  042%=      5-min Rain = 0
KEA1 160149Z 08016G21KT 22/09 A2987 RMK A01 T02200085  RH  042%=      5-min Rain = 0
KEA1 160150Z 08015KT 22/09 A2987 RMK A01 T02200086  RH  042%=      5-min Rain = 0
KEA1 160151Z 08016G22KT 22/09 A2987 RMK A01 T02190086  RH  042%=      5-min Rain = 0
KEA1 160152Z 07018KT 22/09 A2986 RMK A01 T02190086  RH  043%=      5-min Rain = 0
KEA1 160153Z 07017KT 22/09 A2986 RMK A01 T02180086  RH  043%=      5-min Rain = 0
KEA1 160154Z 07016KT 22/09 A2986 RMK A01 T02170086  RH  043%=      5-min Rain = 0
KEA1 160155Z 07018G23KT 22/09 A2986 RMK A01 T02170086  RH  043%=      5-min Rain = 0
KEA1 160156Z 07020KT 22/09 A2986 RMK A01 T02170086  RH  043%=      5-min Rain = 0
KEA1 160157Z 07018G24KT 22/09 A2986 RMK A01 T02160086  RH  043%=      5-min Rain = 0
KEA1 160158Z 08018KT 22/09 A2986 RMK A01 T02160086  RH  043%=      5-min Rain = 0
KEA1 160159Z 08017KT 22/09 A2986 RMK A01 T02160085  RH  043%=      5-min Rain = 0
KEA1 160200Z 08021KT 22/08 A2986 RMK A01 T02150084  RH  043%=      5-min Rain = 0
KEA1 160201Z 08019G26KT 22/08 A2986 RMK A01 T02160083  RH  043%=      5-min Rain = 0
KEA1 160202Z 08017KT 22/08 A2986 RMK A01 T02160083  RH  042%=      5-min Rain = 0
KEA1 160203Z 07017KT 22/08 A2986 RMK A01 T02160084  RH  043%=      5-min Rain = 0
KEA1 160204Z 08017KT 22/08 A2986 RMK A01 T02160083  RH  043%=      5-min Rain = 0
KEA1 160205Z 08014G19KT 22/08 A2986 RMK A01 T02160083  RH  043%=      5-min Rain = 0
KEA1 160206Z 08014KT 22/08 A2986 RMK A01 T02150084  RH  043%=      5-min Rain = 0
KEA1 160207Z 08013G18KT 22/08 A2986 RMK A01 T02150084  RH  043%=      5-min Rain = 0
KEA1 160208Z 07013KT 21/08 A2986 RMK A01 T02140084  RH  043%=      5-min Rain = 0
KEA1 160209Z 07011KT 21/08 A2986 RMK A01 T02140083  RH  043%=      5-min Rain = 0
KEA1 160210Z 07014KT 21/08 A2986 RMK A01 T02130083  RH  043%=      5-min Rain = 0
KEA1 160211Z 06014G19KT 21/08 A2986 RMK A01 T02130082  RH  043%=      5-min Rain = 0
KEA1 160212Z 06014KT 21/08 A2985 RMK A01 T02130082  RH  043%=      5-min Rain = 0
KEA1 160213Z 06013KT 21/08 A2985 RMK A01 T02130082  RH  043%=      5-min Rain = 0
KEA1 160214Z 07013KT 21/08 A2985 RMK A01 T02130082  RH  043%=      5-min Rain = 0
KEA1 160215Z 08011KT 21/08 A2985 RMK A01 T02120082  RH  043%=      5-min Rain = 0
KEA1 160216Z 08010KT 21/08 A2985 RMK A01 T02110082  RH  043%=      5-min Rain = 0
KEA1 160217Z 08010KT 21/08 A2985 RMK A01 T02110082  RH  043%=      5-min Rain = 0
KEA1 160218Z 09009KT 21/08 A2985 RMK A01 T02110082  RH  043%=      5-min Rain = 0
KEA1 160219Z 09007KT 21/08 A2985 RMK A01 T02110082  RH  043%=      5-min Rain = 0
KEA1 160220Z 09010KT 21/08 A2985 RMK A01 T02110081  RH  043%=      5-min Rain = 0
KEA1 160221Z 10009KT 21/08 A2984 RMK A01 T02100081  RH  043%=      5-min Rain = 0
KEA1 160222Z 10010KT 21/08 A2984 RMK A01 T02100081  RH  043%=      5-min Rain = 0
KEA1 160223Z 09011KT 21/08 A2984 RMK A01 T02100081  RH  043%=      5-min Rain = 0
KEA1 160224Z 09009KT 21/08 A2984 RMK A01 T02100082  RH  043%=      5-min Rain = 0
KEA1 160225Z 09010KT 21/08 A2984 RMK A01 T02100082  RH  044%=      5-min Rain = 0
KEA1 160226Z 09010KT 21/08 A2984 RMK A01 T02090081  RH  044%=      5-min Rain = 0
KEA1 160227Z 10010KT 21/08 A2984 RMK A01 T02090081  RH  044%=      5-min Rain = 0
KEA1 160228Z 09010KT 21/08 A2984 RMK A01 T02090081  RH  044%=      5-min Rain = 0
KEA1 160229Z 10009KT 21/08 A2984 RMK A01 T02090082  RH  044%=      5-min Rain = 0
KEA1 160230Z 10009KT 21/08 A2984 RMK A01 T02090083  RH  044%=      5-min Rain = 0
KEA1 160231Z 10009KT 21/08 A2984 RMK A01 T02080083  RH  045%=      5-min Rain = 0
KEA1 160232Z 10009KT 21/08 A2984 RMK A01 T02070083  RH  045%=      5-min Rain = 0
KEA1 160233Z 10009KT 21/08 A2984 RMK A01 T02070083  RH  045%=      5-min Rain = 0
KEA1 160234Z 11009KT 21/08 A2984 RMK A01 T02060084  RH  045%=      5-min Rain = 0
KEA1 160235Z 11009KT 21/08 A2984 RMK A01 T02060084  RH  045%=      5-min Rain = 0
KEA1 160236Z 10009KT 21/08 A2984 RMK A01 T02050084  RH  046%=      5-min Rain = 0
KEA1 160237Z 11009KT 20/08 A2984 RMK A01 T02040084  RH  046%=      5-min Rain = 0
KEA1 160238Z 11010KT 20/08 A2984 RMK A01 T02040084  RH  046%=      5-min Rain = 0
KEA1 160239Z 11010KT 20/09 A2984 RMK A01 T02030085  RH  046%=      5-min Rain = 0
KEA1 160240Z 11009KT 20/09 A2985 RMK A01 T02030085  RH  047%=      5-min Rain = 0
KEA1 160241Z 11009KT 20/09 A2985 RMK A01 T02030086  RH  047%=      5-min Rain = 0
KEA1 160242Z 11008KT 20/09 A2985 RMK A01 T02020087  RH  047%=      5-min Rain = 0
KEA1 160243Z 11009KT 20/09 A2985 RMK A01 T02010087  RH  048%=      5-min Rain = 0
KEA1 160244Z 12010KT 20/09 A2985 RMK A01 T02000087  RH  048%=      5-min Rain = 0
KEA1 160245Z 12010KT 20/09 A2985 RMK A01 T02000088  RH  048%=      5-min Rain = 0
KEA1 160246Z 12009KT 20/09 A2985 RMK A01 T01990088  RH  049%=      5-min Rain = 0
KEA1 160247Z 11009KT 20/09 A2985 RMK A01 T01990088  RH  049%=      5-min Rain = 0
KEA1 160248Z 11009KT 20/09 A2985 RMK A01 T01980088  RH  049%=      5-min Rain = 0
KEA1 160249Z 11008KT 20/09 A2985 RMK A01 T01980089  RH  049%=      5-min Rain = 0
KEA1 160250Z 11007KT 20/09 A2986 RMK A01 T01980090  RH  050%=      5-min Rain = 0
KEA1 160251Z 11007KT 20/09 A2986 RMK A01 T01970090  RH  050%=      5-min Rain = 0
KEA1 160252Z 10006KT 20/09 A2986 RMK A01 T01960092  RH  051%=      5-min Rain = 0
KEA1 160253Z 10006KT 20/09 A2986 RMK A01 T01950092  RH  051%=      5-min Rain = 0
KEA1 160254Z 09007KT 20/09 A2986 RMK A01 T01950092  RH  051%=      5-min Rain = 0
KEA1 160255Z 08008KT 20/09 A2986 RMK A01 T01950091  RH  051%=      5-min Rain = 0
KEA1 160256Z 07008KT 20/09 A2987 RMK A01 T01950091  RH  051%=      5-min Rain = 0
KEA1 160257Z 07008KT 19/09 A2987 RMK A01 T01940092  RH  051%=      5-min Rain = 0
KEA1 160258Z 07008KT 19/09 A2987 RMK A01 T01930091  RH  052%=      5-min Rain = 0
KEA1 160259Z 06008KT 19/09 A2987 RMK A01 T01930092  RH  052%=      5-min Rain = 0
KEA1 160300Z 07007KT 19/09 A2987 RMK A01 T01920091  RH  052%=      5-min Rain = 0
KEA1 160301Z 08007KT 19/09 A2987 RMK A01 T01920091  RH  052%=      5-min Rain = 0
KEA1 160302Z 08006KT 19/09 A2987 RMK A01 T01920092  RH  052%=      5-min Rain = 0
KEA1 160303Z 08005KT 19/09 A2987 RMK A01 T01920092  RH  052%=      5-min Rain = 0
KEA1 160304Z 08005KT 19/09 A2987 RMK A01 T01910092  RH  053%=      5-min Rain = 0
KEA1 160305Z 08005KT 19/09 A2987 RMK A01 T01910092  RH  053%=      5-min Rain = 0
KEA1 160306Z 08005KT 19/09 A2987 RMK A01 T01910092  RH  053%=      5-min Rain = 0
KEA1 160307Z 08005KT 19/09 A2988 RMK A01 T01910093  RH  053%=      5-min Rain = 0
KEA1 160308Z 07005KT 19/09 A2987 RMK A01 T01910093  RH  053%=      5-min Rain = 0
KEA1 160309Z 08005KT 19/09 A2988 RMK A01 T01900093  RH  053%=      5-min Rain = 0
KEA1 160310Z 08004KT 19/09 A2988 RMK A01 T01890094  RH  054%=      5-min Rain = 0
KEA1 160311Z 09003KT 19/09 A2988 RMK A01 T01890094  RH  054%=      5-min Rain = 0
KEA1 160312Z 10003KT 19/09 A2988 RMK A01 T01880094  RH  054%=      5-min Rain = 0
KEA1 160313Z 10003KT 19/09 A2987 RMK A01 T01870094  RH  055%=      5-min Rain = 0
KEA1 160314Z 11004KT 19/09 A2987 RMK A01 T01860094  RH  055%=      5-min Rain = 0
KEA1 160315Z 11004KT 19/09 A2987 RMK A01 T01860093  RH  055%=      5-min Rain = 0
KEA1 160316Z 11003KT 19/09 A2987 RMK A01 T01860093  RH  055%=      5-min Rain = 0
KEA1 160317Z 10003KT 19/09 A2987 RMK A01 T01850093  RH  055%=      5-min Rain = 0
KEA1 160318Z 10003KT 19/09 A2987 RMK A01 T01860093  RH  055%=      5-min Rain = 0
KEA1 160319Z 09003KT 19/09 A2987 RMK A01 T01850093  RH  055%=      5-min Rain = 0
KEA1 160320Z 08003KT 19/09 A2987 RMK A01 T01860093  RH  055%=      5-min Rain = 0
KEA1 160321Z 08003KT 18/09 A2987 RMK A01 T01840093  RH  055%=      5-min Rain = 0
KEA1 160322Z 08003KT 18/09 A2987 RMK A01 T01820093  RH  056%=      5-min Rain = 0
KEA1 160323Z 09003KT 18/09 A2987 RMK A01 T01810093  RH  056%=      5-min Rain = 0
KEA1 160324Z 10004KT 18/09 A2987 RMK A01 T01800093  RH  057%=      5-min Rain = 0
KEA1 160325Z 11005KT 18/09 A2987 RMK A01 T01790093  RH  057%=      5-min Rain = 0
KEA1 160326Z 10005KT 18/09 A2988 RMK A01 T01790093  RH  057%=      5-min Rain = 0
KEA1 160327Z 10005KT 18/09 A2988 RMK A01 T01790093  RH  057%=      5-min Rain = 0
KEA1 160328Z 09004KT 18/09 A2988 RMK A01 T01790093  RH  057%=      5-min Rain = 0
KEA1 160329Z 08004KT 18/09 A2988 RMK A01 T01780093  RH  057%=      5-min Rain = 0
KEA1 160330Z 06004KT 18/09 A2988 RMK A01 T01770092  RH  058%=      5-min Rain = 0
KEA1 160331Z 04004KT 17/09 A2989 RMK A01 T01720090  RH  058%=      5-min Rain = 0
KEA1 160332Z 03005KT 17/09 A2989 RMK A01 T01680090  RH  060%=      5-min Rain = 0
KEA1 160333Z 01006KT 17/09 A299 RMK A01 T01650091  RH  062%=      5-min Rain = 0
KEA1 160334Z 34013G19KT 16/09 A2992 RMK A01 T01630093  RH  063%=      5-min Rain = 0
KEA1 160335Z 34021KT 16/09 A2993 RMK A01 T01620093  RH  064%=      5-min Rain = 0
KEA1 160336Z 35019G25KT 17/10 A2993 RMK A01 T01650099  RH  065%=      5-min Rain = 0
KEA1 160337Z 35015KT 17/10 A2993 RMK A01 T01690103  RH  065%=      5-min Rain = 0
KEA1 160338Z 35015KT 17/11 A2993 RMK A01 T01730105  RH  064%=      5-min Rain = 0
KEA1 160339Z 36017G22KT 18/10 A2993 RMK A01 T01750104  RH  063%=      5-min Rain = 0
KEA1 160340Z 01016KT 18/10 A2993 RMK A01 T01830096  RH  057%=      5-min Rain = 0
KEA1 160341Z 02015KT 19/09 A2992 RMK A01 T01910093  RH  053%=      5-min Rain = 0
KEA1 160342Z 02014KT 20/09 A2993 RMK A01 T01950094  RH  052%=      5-min Rain = 0
KEA1 160343Z 01015KT 20/10 A2993 RMK A01 T01950097  RH  053%=      5-min Rain = 0
KEA1 160344Z 01013KT 19/10 A2993 RMK A01 T01940098  RH  054%=      5-min Rain = 0
KEA1 160345Z 01013KT 19/10 A2994 RMK A01 T01930097  RH  054%=      5-min Rain = 0
KEA1 160346Z 00013KT 19/10 A2994 RMK A01 T01930096  RH  053%=      5-min Rain = 0
KEA1 160347Z 01014KT 19/10 A2994 RMK A01 T01920095  RH  053%=      5-min Rain = 0
KEA1 160348Z 00011KT 19/09 A2994 RMK A01 T01920093  RH  053%=      5-min Rain = 0
KEA1 160349Z 00010KT 19/09 A2994 RMK A01 T01930092  RH  052%=      5-min Rain = 0
KEA1 160350Z 01011KT 19/09 A2995 RMK A01 T01930090  RH  051%=      5-min Rain = 0
KEA1 160351Z 01011KT 19/09 A2995 RMK A01 T01940089  RH  051%=      5-min Rain = 0
KEA1 160352Z 02010KT 20/09 A2995 RMK A01 T01950089  RH  050%=      5-min Rain = 0
KEA1 160353Z 02010KT 20/09 A2995 RMK A01 T01950088  RH  050%=      5-min Rain = 0
KEA1 160354Z 02010KT 20/09 A2995 RMK A01 T01960087  RH  049%=      5-min Rain = 0
KEA1 160355Z 02009KT 20/09 A2995 RMK A01 T01970087  RH  049%=      5-min Rain = 0
KEA1 160356Z 02008KT 20/09 A2995 RMK A01 T01970087  RH  049%=      5-min Rain = 0
KEA1 160357Z 02009KT 20/09 A2995 RMK A01 T01970088  RH  049%=      5-min Rain = 0
KEA1 160358Z 02011KT 20/09 A2996 RMK A01 T01970088  RH  049%=      5-min Rain = 0
KEA1 160359Z 02011KT 20/09 A2996 RMK A01 T01960088  RH  049%=      5-min Rain = 0
KEA1 160400Z 02011KT 20/09 A2996 RMK A01 T01950087  RH  050%=      5-min Rain = 0
KEA1 160401Z 02010KT 20/09 A2996 RMK A01 T01950088  RH  050%=      5-min Rain = 0
KEA1 160402Z 02012KT 20/09 A2996 RMK A01 T01950087  RH  050%=      5-min Rain = 0
KEA1 160403Z 01012KT 20/09 A2996 RMK A01 T01950087  RH  050%=      5-min Rain = 0
KEA1 160404Z 01012KT 20/09 A2996 RMK A01 T01960087  RH  050%=      5-min Rain = 0
KEA1 160405Z 01014KT 20/09 A2996 RMK A01 T01960089  RH  050%=      5-min Rain = 0
KEA1 160406Z 01013KT 20/09 A2996 RMK A01 T01970091  RH  050%=      5-min Rain = 0
KEA1 160407Z 02014KT 20/09 A2996 RMK A01 T01980093  RH  051%=      5-min Rain = 0
KEA1 160408Z 01014KT 20/10 A2996 RMK A01 T01980095  RH  051%=      5-min Rain = 0
KEA1 160409Z 01013KT 20/10 A2996 RMK A01 T01980097  RH  052%=      5-min Rain = 0
KEA1 160410Z 01012KT 20/10 A2996 RMK A01 T01980098  RH  052%=      5-min Rain = 0
KEA1 160411Z 01011KT 20/10 A2996 RMK A01 T01980100  RH  053%=      5-min Rain = 0
KEA1 160412Z 00012KT 20/10 A2996 RMK A01 T01960100  RH  054%=      5-min Rain = 0
KEA1 160413Z 01012KT 20/10 A2996 RMK A01 T01960100  RH  054%=      5-min Rain = 0
KEA1 160414Z 01012KT 20/10 A2996 RMK A01 T01960101  RH  054%=      5-min Rain = 0
KEA1 160415Z 01011KT 20/10 A2996 RMK A01 T01960102  RH  054%=      5-min Rain = 0
KEA1 160416Z 02011KT 20/10 A2996 RMK A01 T01960102  RH  054%=      5-min Rain = 0
KEA1 160417Z 01011KT 20/10 A2996 RMK A01 T01960103  RH  055%=      5-min Rain = 0
KEA1 160418Z 01011KT 20/10 A2996 RMK A01 T01960104  RH  055%=      5-min Rain = 0
KEA1 160419Z 01011KT 20/10 A2996 RMK A01 T01950103  RH  055%=      5-min Rain = 0
KEA1 160420Z 01011KT 19/10 A2996 RMK A01 T01940104  RH  056%=      5-min Rain = 0
KEA1 160421Z 01011KT 19/11 A2996 RMK A01 T01940105  RH  056%=      5-min Rain = 0
KEA1 160422Z 01010KT 19/11 A2996 RMK A01 T01930105  RH  057%=      5-min Rain = 0
KEA1 160423Z 01010KT 19/11 A2996 RMK A01 T01920105  RH  057%=      5-min Rain = 0
KEA1 160424Z 01010KT 19/11 A2996 RMK A01 T01910106  RH  057%=      5-min Rain = 0
KEA1 160425Z 01010KT 19/11 A2996 RMK A01 T01910106  RH  058%=      5-min Rain = 0
KEA1 160426Z 01010KT 19/11 A2996 RMK A01 T01900106  RH  058%=      5-min Rain = 0
KEA1 160427Z 01010KT 19/11 A2996 RMK A01 T01890106  RH  059%=      5-min Rain = 0
KEA1 160428Z 01010KT 19/11 A2996 RMK A01 T01880107  RH  059%=      5-min Rain = 0
KEA1 160429Z 02009KT 19/11 A2996 RMK A01 T01880107  RH  059%=      5-min Rain = 0
KEA1 160430Z 02008KT 19/11 A2996 RMK A01 T01870107  RH  060%=      5-min Rain = 0
KEA1 160431Z 02008KT 19/11 A2996 RMK A01 T01870107  RH  060%=      5-min Rain = 0
KEA1 160432Z 02007KT 19/11 A2996 RMK A01 T01860107  RH  060%=      5-min Rain = 0
KEA1 160433Z 02007KT 18/11 A2996 RMK A01 T01840107  RH  061%=      5-min Rain = 0
KEA1 160434Z 02006KT 18/11 A2996 RMK A01 T01830107  RH  061%=      5-min Rain = 0
KEA1 160435Z 02006KT 18/11 A2996 RMK A01 T01820107  RH  061%=      5-min Rain = 0
KEA1 160436Z 03006KT 18/11 A2996 RMK A01 T01810106  RH  062%=      5-min Rain = 0
KEA1 160437Z 03006KT 18/11 A2996 RMK A01 T01800106  RH  062%=      5-min Rain = 0
KEA1 160438Z 03005KT 18/11 A2996 RMK A01 T01790106  RH  062%=      5-min Rain = 0
KEA1 160439Z 04005KT 18/11 A2996 RMK A01 T01780105  RH  062%=      5-min Rain = 0
KEA1 160440Z 04005KT 18/11 A2995 RMK A01 T01770105  RH  063%=      5-min Rain = 0
KEA1 160441Z 03005KT 18/11 A2995 RMK A01 T01760105  RH  063%=      5-min Rain = 0
KEA1 160442Z 03005KT 18/11 A2995 RMK A01 T01770105  RH  063%=      5-min Rain = 0
KEA1 160443Z 03005KT 18/11 A2996 RMK A01 T01760105  RH  063%=      5-min Rain = 0
KEA1 160444Z 03005KT 18/10 A2995 RMK A01 T01760104  RH  063%=      5-min Rain = 0
KEA1 160445Z 02005KT 18/10 A2995 RMK A01 T01750104  RH  063%=      5-min Rain = 0
KEA1 160446Z 01005KT 18/10 A2996 RMK A01 T01750104  RH  063%=      5-min Rain = 0
KEA1 160447Z 01005KT 18/10 A2996 RMK A01 T01750104  RH  063%=      5-min Rain = 0
KEA1 160448Z 01005KT 17/10 A2996 RMK A01 T01740104  RH  064%=      5-min Rain = 0
KEA1 160449Z 02005KT 17/10 A2996 RMK A01 T01730104  RH  064%=      5-min Rain = 0
KEA1 160450Z 02005KT 17/10 A2996 RMK A01 T01720104  RH  064%=      5-min Rain = 0
KEA1 160451Z 02005KT 17/10 A2996 RMK A01 T01730104  RH  064%=      5-min Rain = 0
KEA1 160452Z 02004KT 17/10 A2996 RMK A01 T01720104  RH  064%=      5-min Rain = 0
KEA1 160453Z 03004KT 17/11 A2996 RMK A01 T01720105  RH  064%=      5-min Rain = 0
KEA1 160454Z 03004KT 17/11 A2996 RMK A01 T01720105  RH  064%=      5-min Rain = 0
KEA1 160455Z 03004KT 17/11 A2996 RMK A01 T01730105  RH  064%=      5-min Rain = 0
KEA1 160456Z 03004KT 17/11 A2996 RMK A01 T01730105  RH  064%=      5-min Rain = 0
KEA1 160457Z 03005KT 17/11 A2996 RMK A01 T01730105  RH  064%=      5-min Rain = 0
KEA1 160458Z 03005KT 17/11 A2997 RMK A01 T01720105  RH  064%=      5-min Rain = 0
KEA1 160459Z 04005KT 17/11 A2997 RMK A01 T01720105  RH  065%=      5-min Rain = 0

Page generated in 0.1437 seconds.